<?xml version="1.0" encoding="UTF-8" standalone="no" ?>
<gpx xmlns="http://www.topografix.com/GPX/1/1" xmlns:xsi="http://www.w3.org/2001/XMLSchema-instance" xsi:schemaLocation="http://www.topografix.com/GPX/1/1 http://www.topografix.com/GPX/1/1/gpx.xsd" version="1.1" creator="VisuGPX - https://www.visugpx.com">
  <metadata>
    <name>Donon et petit Donon depuis le col</name>
    <desc><![CDATA[Depuis le col du Donon, montée au Donon avec son temple et un point de vue magnifique. Descente vers le col entre deux Donon et montée au petit Donon. Retour par le même chemin puis retour par le sentier sud jusqu'au col]]></desc>
  </metadata>
  <trk>
    <name><![CDATA[2020-10-24 Donon]]></name>
    <extensions>
      <line xmlns="http://www.topografix.com/GPX/gpx_style/0/2">
        <color>0000FF</color>
        <opacity>0.59</opacity>
        <width>6.0</width>
      </line>
    </extensions>
    <trkseg>
      <trkpt lat="48.50776" lon="7.14656">
        <ele>734</ele>
        <time>2020-10-24T12:22:16.000Z</time>
      </trkpt>
      <trkpt lat="48.50777" lon="7.14656">
        <ele>734</ele>
        <time>2020-10-24T12:22:45.000Z</time>
      </trkpt>
      <trkpt lat="48.50795" lon="7.14661">
        <ele>735</ele>
        <time>2020-10-24T12:22:55.000Z</time>
      </trkpt>
      <trkpt lat="48.508" lon="7.14675">
        <ele>733</ele>
        <time>2020-10-24T12:23:05.000Z</time>
      </trkpt>
      <trkpt lat="48.50798" lon="7.14694">
        <ele>733</ele>
        <time>2020-10-24T12:23:15.000Z</time>
      </trkpt>
      <trkpt lat="48.50797" lon="7.14706">
        <ele>733</ele>
        <time>2020-10-24T12:23:25.000Z</time>
      </trkpt>
      <trkpt lat="48.50796" lon="7.14721">
        <ele>732</ele>
        <time>2020-10-24T12:23:35.000Z</time>
      </trkpt>
      <trkpt lat="48.50798" lon="7.14736">
        <ele>732</ele>
        <time>2020-10-24T12:23:45.000Z</time>
      </trkpt>
      <trkpt lat="48.50798" lon="7.14759">
        <ele>732</ele>
        <time>2020-10-24T12:23:55.000Z</time>
      </trkpt>
      <trkpt lat="48.50801" lon="7.14781">
        <ele>733</ele>
        <time>2020-10-24T12:24:05.000Z</time>
      </trkpt>
      <trkpt lat="48.508" lon="7.14802">
        <ele>733</ele>
        <time>2020-10-24T12:24:15.000Z</time>
      </trkpt>
      <trkpt lat="48.50801" lon="7.14822">
        <ele>733</ele>
        <time>2020-10-24T12:24:25.000Z</time>
      </trkpt>
      <trkpt lat="48.50803" lon="7.1484">
        <ele>736</ele>
        <time>2020-10-24T12:24:35.000Z</time>
      </trkpt>
      <trkpt lat="48.50804" lon="7.14859">
        <ele>737</ele>
        <time>2020-10-24T12:24:45.000Z</time>
      </trkpt>
      <trkpt lat="48.50806" lon="7.14877">
        <ele>737</ele>
        <time>2020-10-24T12:24:55.000Z</time>
      </trkpt>
      <trkpt lat="48.50807" lon="7.149">
        <ele>738</ele>
        <time>2020-10-24T12:25:05.000Z</time>
      </trkpt>
      <trkpt lat="48.50809" lon="7.14921">
        <ele>741</ele>
        <time>2020-10-24T12:25:15.000Z</time>
      </trkpt>
      <trkpt lat="48.50812" lon="7.14939">
        <ele>742</ele>
        <time>2020-10-24T12:25:25.000Z</time>
      </trkpt>
      <trkpt lat="48.50815" lon="7.14956">
        <ele>742</ele>
        <time>2020-10-24T12:25:35.000Z</time>
      </trkpt>
      <trkpt lat="48.50812" lon="7.14972">
        <ele>743</ele>
        <time>2020-10-24T12:25:45.000Z</time>
      </trkpt>
      <trkpt lat="48.50814" lon="7.1499">
        <ele>743</ele>
        <time>2020-10-24T12:25:55.000Z</time>
      </trkpt>
      <trkpt lat="48.50813" lon="7.15009">
        <ele>747</ele>
        <time>2020-10-24T12:26:05.000Z</time>
      </trkpt>
      <trkpt lat="48.5081" lon="7.15028">
        <ele>748</ele>
        <time>2020-10-24T12:26:15.000Z</time>
      </trkpt>
      <trkpt lat="48.50805" lon="7.15046">
        <ele>749</ele>
        <time>2020-10-24T12:26:25.000Z</time>
      </trkpt>
      <trkpt lat="48.50798" lon="7.15062">
        <ele>750</ele>
        <time>2020-10-24T12:26:35.000Z</time>
      </trkpt>
      <trkpt lat="48.50791" lon="7.15079">
        <ele>751</ele>
        <time>2020-10-24T12:26:45.000Z</time>
      </trkpt>
      <trkpt lat="48.50783" lon="7.15096">
        <ele>758</ele>
        <time>2020-10-24T12:26:55.000Z</time>
      </trkpt>
      <trkpt lat="48.50777" lon="7.15111">
        <ele>759</ele>
        <time>2020-10-24T12:27:05.000Z</time>
      </trkpt>
      <trkpt lat="48.50772" lon="7.15126">
        <ele>761</ele>
        <time>2020-10-24T12:27:15.000Z</time>
      </trkpt>
      <trkpt lat="48.50764" lon="7.15133">
        <ele>762</ele>
        <time>2020-10-24T12:27:25.000Z</time>
      </trkpt>
      <trkpt lat="48.50754" lon="7.15139">
        <ele>763</ele>
        <time>2020-10-24T12:27:35.000Z</time>
      </trkpt>
      <trkpt lat="48.50742" lon="7.15144">
        <ele>765</ele>
        <time>2020-10-24T12:27:45.000Z</time>
      </trkpt>
      <trkpt lat="48.50729" lon="7.15148">
        <ele>765</ele>
        <time>2020-10-24T12:27:55.000Z</time>
      </trkpt>
      <trkpt lat="48.50717" lon="7.15156">
        <ele>765</ele>
        <time>2020-10-24T12:28:05.000Z</time>
      </trkpt>
      <trkpt lat="48.50707" lon="7.15165">
        <ele>765</ele>
        <time>2020-10-24T12:28:15.000Z</time>
      </trkpt>
      <trkpt lat="48.50698" lon="7.15179">
        <ele>772</ele>
        <time>2020-10-24T12:28:25.000Z</time>
      </trkpt>
      <trkpt lat="48.50691" lon="7.15192">
        <ele>772</ele>
        <time>2020-10-24T12:28:35.000Z</time>
      </trkpt>
      <trkpt lat="48.50685" lon="7.1521">
        <ele>773</ele>
        <time>2020-10-24T12:28:45.000Z</time>
      </trkpt>
      <trkpt lat="48.50679" lon="7.15229">
        <ele>775</ele>
        <time>2020-10-24T12:28:55.000Z</time>
      </trkpt>
      <trkpt lat="48.50669" lon="7.15246">
        <ele>776</ele>
        <time>2020-10-24T12:29:05.000Z</time>
      </trkpt>
      <trkpt lat="48.50662" lon="7.15265">
        <ele>774</ele>
        <time>2020-10-24T12:29:15.000Z</time>
      </trkpt>
      <trkpt lat="48.50657" lon="7.1528">
        <ele>773</ele>
        <time>2020-10-24T12:29:25.000Z</time>
      </trkpt>
      <trkpt lat="48.50653" lon="7.15295">
        <ele>773</ele>
        <time>2020-10-24T12:29:35.000Z</time>
      </trkpt>
      <trkpt lat="48.50649" lon="7.15312">
        <ele>774</ele>
        <time>2020-10-24T12:29:45.000Z</time>
      </trkpt>
      <trkpt lat="48.50651" lon="7.15331">
        <ele>776</ele>
        <time>2020-10-24T12:29:55.000Z</time>
      </trkpt>
      <trkpt lat="48.50655" lon="7.15347">
        <ele>778</ele>
        <time>2020-10-24T12:30:05.000Z</time>
      </trkpt>
      <trkpt lat="48.50661" lon="7.15367">
        <ele>778</ele>
        <time>2020-10-24T12:30:15.000Z</time>
      </trkpt>
      <trkpt lat="48.50666" lon="7.15386">
        <ele>779</ele>
        <time>2020-10-24T12:30:25.000Z</time>
      </trkpt>
      <trkpt lat="48.50673" lon="7.15399">
        <ele>789</ele>
        <time>2020-10-24T12:30:35.000Z</time>
      </trkpt>
      <trkpt lat="48.50679" lon="7.15412">
        <ele>789</ele>
        <time>2020-10-24T12:30:45.000Z</time>
      </trkpt>
      <trkpt lat="48.50686" lon="7.15423">
        <ele>793</ele>
        <time>2020-10-24T12:30:55.000Z</time>
      </trkpt>
      <trkpt lat="48.50698" lon="7.15432">
        <ele>795</ele>
        <time>2020-10-24T12:31:05.000Z</time>
      </trkpt>
      <trkpt lat="48.50711" lon="7.1544">
        <ele>797</ele>
        <time>2020-10-24T12:31:15.000Z</time>
      </trkpt>
      <trkpt lat="48.50722" lon="7.15445">
        <ele>798</ele>
        <time>2020-10-24T12:31:25.000Z</time>
      </trkpt>
      <trkpt lat="48.50735" lon="7.1545">
        <ele>798</ele>
        <time>2020-10-24T12:31:35.000Z</time>
      </trkpt>
      <trkpt lat="48.50745" lon="7.1546">
        <ele>799</ele>
        <time>2020-10-24T12:31:45.000Z</time>
      </trkpt>
      <trkpt lat="48.50752" lon="7.15468">
        <ele>803</ele>
        <time>2020-10-24T12:31:55.000Z</time>
      </trkpt>
      <trkpt lat="48.5076" lon="7.15472">
        <ele>803</ele>
        <time>2020-10-24T12:32:05.000Z</time>
      </trkpt>
      <trkpt lat="48.50769" lon="7.15475">
        <ele>803</ele>
        <time>2020-10-24T12:32:15.000Z</time>
      </trkpt>
      <trkpt lat="48.50777" lon="7.15481">
        <ele>803</ele>
        <time>2020-10-24T12:32:25.000Z</time>
      </trkpt>
      <trkpt lat="48.50781" lon="7.15487">
        <ele>803</ele>
        <time>2020-10-24T12:32:35.000Z</time>
      </trkpt>
      <trkpt lat="48.50783" lon="7.15492">
        <ele>803</ele>
        <time>2020-10-24T12:32:45.000Z</time>
      </trkpt>
      <trkpt lat="48.50786" lon="7.15496">
        <ele>803</ele>
        <time>2020-10-24T12:32:55.000Z</time>
      </trkpt>
      <trkpt lat="48.50791" lon="7.15506">
        <ele>809</ele>
        <time>2020-10-24T12:33:05.000Z</time>
      </trkpt>
      <trkpt lat="48.50797" lon="7.1552">
        <ele>809</ele>
        <time>2020-10-24T12:33:15.000Z</time>
      </trkpt>
      <trkpt lat="48.50807" lon="7.1553">
        <ele>810</ele>
        <time>2020-10-24T12:33:25.000Z</time>
      </trkpt>
      <trkpt lat="48.50812" lon="7.15533">
        <ele>810</ele>
        <time>2020-10-24T12:33:35.000Z</time>
      </trkpt>
      <trkpt lat="48.50814" lon="7.15535">
        <ele>810</ele>
        <time>2020-10-24T12:33:45.000Z</time>
      </trkpt>
      <trkpt lat="48.50815" lon="7.15542">
        <ele>810</ele>
        <time>2020-10-24T12:33:55.000Z</time>
      </trkpt>
      <trkpt lat="48.50815" lon="7.15543">
        <ele>810</ele>
        <time>2020-10-24T12:34:05.000Z</time>
      </trkpt>
      <trkpt lat="48.50814" lon="7.15547">
        <ele>811</ele>
        <time>2020-10-24T12:35:20.000Z</time>
      </trkpt>
      <trkpt lat="48.50816" lon="7.15552">
        <ele>811</ele>
        <time>2020-10-24T12:35:30.000Z</time>
      </trkpt>
      <trkpt lat="48.50822" lon="7.15561">
        <ele>812</ele>
        <time>2020-10-24T12:35:40.000Z</time>
      </trkpt>
      <trkpt lat="48.50824" lon="7.15578">
        <ele>814</ele>
        <time>2020-10-24T12:35:50.000Z</time>
      </trkpt>
      <trkpt lat="48.50829" lon="7.15592">
        <ele>817</ele>
        <time>2020-10-24T12:36:00.000Z</time>
      </trkpt>
      <trkpt lat="48.50834" lon="7.15601">
        <ele>820</ele>
        <time>2020-10-24T12:36:10.000Z</time>
      </trkpt>
      <trkpt lat="48.50836" lon="7.15603">
        <ele>821</ele>
        <time>2020-10-24T12:36:20.000Z</time>
      </trkpt>
      <trkpt lat="48.50834" lon="7.15607">
        <ele>821</ele>
        <time>2020-10-24T12:36:30.000Z</time>
      </trkpt>
      <trkpt lat="48.50833" lon="7.15606">
        <ele>819</ele>
        <time>2020-10-24T12:36:40.000Z</time>
      </trkpt>
      <trkpt lat="48.50831" lon="7.15601">
        <ele>818</ele>
        <time>2020-10-24T12:36:50.000Z</time>
      </trkpt>
      <trkpt lat="48.50834" lon="7.15602">
        <ele>820</ele>
        <time>2020-10-24T12:37:18.000Z</time>
      </trkpt>
      <trkpt lat="48.50836" lon="7.15602">
        <ele>820</ele>
        <time>2020-10-24T12:37:29.000Z</time>
      </trkpt>
      <trkpt lat="48.50838" lon="7.15605">
        <ele>821</ele>
        <time>2020-10-24T12:37:39.000Z</time>
      </trkpt>
      <trkpt lat="48.50832" lon="7.15609">
        <ele>819</ele>
        <time>2020-10-24T12:37:49.000Z</time>
      </trkpt>
      <trkpt lat="48.50831" lon="7.15613">
        <ele>820</ele>
        <time>2020-10-24T12:37:59.000Z</time>
      </trkpt>
      <trkpt lat="48.50829" lon="7.15623">
        <ele>821</ele>
        <time>2020-10-24T12:38:09.000Z</time>
      </trkpt>
      <trkpt lat="48.50821" lon="7.15638">
        <ele>822</ele>
        <time>2020-10-24T12:38:19.000Z</time>
      </trkpt>
      <trkpt lat="48.50818" lon="7.15649">
        <ele>823</ele>
        <time>2020-10-24T12:38:29.000Z</time>
      </trkpt>
      <trkpt lat="48.50812" lon="7.15658">
        <ele>824</ele>
        <time>2020-10-24T12:38:39.000Z</time>
      </trkpt>
      <trkpt lat="48.50809" lon="7.15674">
        <ele>830</ele>
        <time>2020-10-24T12:38:49.000Z</time>
      </trkpt>
      <trkpt lat="48.5081" lon="7.15688">
        <ele>830</ele>
        <time>2020-10-24T12:38:59.000Z</time>
      </trkpt>
      <trkpt lat="48.50811" lon="7.15691">
        <ele>830</ele>
        <time>2020-10-24T12:39:09.000Z</time>
      </trkpt>
      <trkpt lat="48.50811" lon="7.157">
        <ele>831</ele>
        <time>2020-10-24T12:39:19.000Z</time>
      </trkpt>
      <trkpt lat="48.50815" lon="7.15716">
        <ele>833</ele>
        <time>2020-10-24T12:39:29.000Z</time>
      </trkpt>
      <trkpt lat="48.5082" lon="7.15731">
        <ele>836</ele>
        <time>2020-10-24T12:39:39.000Z</time>
      </trkpt>
      <trkpt lat="48.50823" lon="7.15744">
        <ele>839</ele>
        <time>2020-10-24T12:39:49.000Z</time>
      </trkpt>
      <trkpt lat="48.50826" lon="7.15752">
        <ele>843</ele>
        <time>2020-10-24T12:39:59.000Z</time>
      </trkpt>
      <trkpt lat="48.50827" lon="7.15768">
        <ele>843</ele>
        <time>2020-10-24T12:40:09.000Z</time>
      </trkpt>
      <trkpt lat="48.50832" lon="7.15771">
        <ele>843</ele>
        <time>2020-10-24T12:40:19.000Z</time>
      </trkpt>
      <trkpt lat="48.50833" lon="7.15772">
        <ele>848</ele>
        <time>2020-10-24T12:40:29.000Z</time>
      </trkpt>
      <trkpt lat="48.50836" lon="7.15777">
        <ele>849</ele>
        <time>2020-10-24T12:40:39.000Z</time>
      </trkpt>
      <trkpt lat="48.50838" lon="7.15777">
        <ele>849</ele>
        <time>2020-10-24T12:41:47.000Z</time>
      </trkpt>
      <trkpt lat="48.5084" lon="7.15779">
        <ele>849</ele>
        <time>2020-10-24T12:41:57.000Z</time>
      </trkpt>
      <trkpt lat="48.50846" lon="7.15775">
        <ele>849</ele>
        <time>2020-10-24T12:42:07.000Z</time>
      </trkpt>
      <trkpt lat="48.50851" lon="7.15787">
        <ele>850</ele>
        <time>2020-10-24T12:42:17.000Z</time>
      </trkpt>
      <trkpt lat="48.50852" lon="7.15789">
        <ele>850</ele>
        <time>2020-10-24T12:42:34.000Z</time>
      </trkpt>
      <trkpt lat="48.50855" lon="7.158">
        <ele>851</ele>
        <time>2020-10-24T12:42:44.000Z</time>
      </trkpt>
      <trkpt lat="48.50858" lon="7.15806">
        <ele>851</ele>
        <time>2020-10-24T12:42:54.000Z</time>
      </trkpt>
      <trkpt lat="48.50858" lon="7.15811">
        <ele>852</ele>
        <time>2020-10-24T12:43:04.000Z</time>
      </trkpt>
      <trkpt lat="48.50863" lon="7.15836">
        <ele>860</ele>
        <time>2020-10-24T12:43:14.000Z</time>
      </trkpt>
      <trkpt lat="48.50864" lon="7.15842">
        <ele>861</ele>
        <time>2020-10-24T12:43:24.000Z</time>
      </trkpt>
      <trkpt lat="48.50865" lon="7.15843">
        <ele>861</ele>
        <time>2020-10-24T12:43:34.000Z</time>
      </trkpt>
      <trkpt lat="48.50864" lon="7.15846">
        <ele>861</ele>
        <time>2020-10-24T12:43:44.000Z</time>
      </trkpt>
      <trkpt lat="48.50862" lon="7.15858">
        <ele>862</ele>
        <time>2020-10-24T12:43:54.000Z</time>
      </trkpt>
      <trkpt lat="48.50862" lon="7.15864">
        <ele>862</ele>
        <time>2020-10-24T12:44:04.000Z</time>
      </trkpt>
      <trkpt lat="48.50867" lon="7.15874">
        <ele>863</ele>
        <time>2020-10-24T12:44:14.000Z</time>
      </trkpt>
      <trkpt lat="48.50868" lon="7.15884">
        <ele>864</ele>
        <time>2020-10-24T12:44:41.000Z</time>
      </trkpt>
      <trkpt lat="48.5087" lon="7.15888">
        <ele>864</ele>
        <time>2020-10-24T12:44:51.000Z</time>
      </trkpt>
      <trkpt lat="48.50869" lon="7.15895">
        <ele>865</ele>
        <time>2020-10-24T12:45:01.000Z</time>
      </trkpt>
      <trkpt lat="48.50871" lon="7.15915">
        <ele>866</ele>
        <time>2020-10-24T12:45:11.000Z</time>
      </trkpt>
      <trkpt lat="48.5087" lon="7.15931">
        <ele>875</ele>
        <time>2020-10-24T12:45:21.000Z</time>
      </trkpt>
      <trkpt lat="48.50868" lon="7.1595">
        <ele>876</ele>
        <time>2020-10-24T12:45:31.000Z</time>
      </trkpt>
      <trkpt lat="48.50865" lon="7.15956">
        <ele>876</ele>
        <time>2020-10-24T12:45:41.000Z</time>
      </trkpt>
      <trkpt lat="48.50864" lon="7.1596">
        <ele>877</ele>
        <time>2020-10-24T12:45:51.000Z</time>
      </trkpt>
      <trkpt lat="48.5086" lon="7.15977">
        <ele>877</ele>
        <time>2020-10-24T12:46:01.000Z</time>
      </trkpt>
      <trkpt lat="48.5086" lon="7.15989">
        <ele>877</ele>
        <time>2020-10-24T12:46:11.000Z</time>
      </trkpt>
      <trkpt lat="48.50861" lon="7.16">
        <ele>884</ele>
        <time>2020-10-24T12:46:21.000Z</time>
      </trkpt>
      <trkpt lat="48.50863" lon="7.16007">
        <ele>885</ele>
        <time>2020-10-24T12:46:31.000Z</time>
      </trkpt>
      <trkpt lat="48.50863" lon="7.16011">
        <ele>885</ele>
        <time>2020-10-24T12:46:41.000Z</time>
      </trkpt>
      <trkpt lat="48.50862" lon="7.16024">
        <ele>886</ele>
        <time>2020-10-24T12:46:51.000Z</time>
      </trkpt>
      <trkpt lat="48.50861" lon="7.1604">
        <ele>887</ele>
        <time>2020-10-24T12:47:01.000Z</time>
      </trkpt>
      <trkpt lat="48.50857" lon="7.16063">
        <ele>886</ele>
        <time>2020-10-24T12:47:11.000Z</time>
      </trkpt>
      <trkpt lat="48.50854" lon="7.1608">
        <ele>885</ele>
        <time>2020-10-24T12:47:21.000Z</time>
      </trkpt>
      <trkpt lat="48.50854" lon="7.16101">
        <ele>889</ele>
        <time>2020-10-24T12:47:31.000Z</time>
      </trkpt>
      <trkpt lat="48.50854" lon="7.16108">
        <ele>890</ele>
        <time>2020-10-24T12:47:41.000Z</time>
      </trkpt>
      <trkpt lat="48.50853" lon="7.16113">
        <ele>890</ele>
        <time>2020-10-24T12:47:51.000Z</time>
      </trkpt>
      <trkpt lat="48.50857" lon="7.16119">
        <ele>891</ele>
        <time>2020-10-24T12:48:01.000Z</time>
      </trkpt>
      <trkpt lat="48.50863" lon="7.16132">
        <ele>892</ele>
        <time>2020-10-24T12:48:11.000Z</time>
      </trkpt>
      <trkpt lat="48.50866" lon="7.16142">
        <ele>893</ele>
        <time>2020-10-24T12:48:21.000Z</time>
      </trkpt>
      <trkpt lat="48.50869" lon="7.1615">
        <ele>894</ele>
        <time>2020-10-24T12:48:31.000Z</time>
      </trkpt>
      <trkpt lat="48.50871" lon="7.16153">
        <ele>894</ele>
        <time>2020-10-24T12:48:41.000Z</time>
      </trkpt>
      <trkpt lat="48.50874" lon="7.16161">
        <ele>895</ele>
        <time>2020-10-24T12:48:51.000Z</time>
      </trkpt>
      <trkpt lat="48.50877" lon="7.16173">
        <ele>894</ele>
        <time>2020-10-24T12:49:01.000Z</time>
      </trkpt>
      <trkpt lat="48.50878" lon="7.16184">
        <ele>894</ele>
        <time>2020-10-24T12:49:11.000Z</time>
      </trkpt>
      <trkpt lat="48.50882" lon="7.16195">
        <ele>894</ele>
        <time>2020-10-24T12:49:21.000Z</time>
      </trkpt>
      <trkpt lat="48.50888" lon="7.16207">
        <ele>895</ele>
        <time>2020-10-24T12:49:31.000Z</time>
      </trkpt>
      <trkpt lat="48.50894" lon="7.16214">
        <ele>895</ele>
        <time>2020-10-24T12:49:41.000Z</time>
      </trkpt>
      <trkpt lat="48.50898" lon="7.16228">
        <ele>896</ele>
        <time>2020-10-24T12:49:51.000Z</time>
      </trkpt>
      <trkpt lat="48.50903" lon="7.16242">
        <ele>898</ele>
        <time>2020-10-24T12:50:01.000Z</time>
      </trkpt>
      <trkpt lat="48.50904" lon="7.16248">
        <ele>899</ele>
        <time>2020-10-24T12:50:11.000Z</time>
      </trkpt>
      <trkpt lat="48.50908" lon="7.16255">
        <ele>897</ele>
        <time>2020-10-24T12:50:21.000Z</time>
      </trkpt>
      <trkpt lat="48.50913" lon="7.16263">
        <ele>895</ele>
        <time>2020-10-24T12:50:31.000Z</time>
      </trkpt>
      <trkpt lat="48.50913" lon="7.16265">
        <ele>894</ele>
        <time>2020-10-24T12:50:41.000Z</time>
      </trkpt>
      <trkpt lat="48.50916" lon="7.16266">
        <ele>894</ele>
        <time>2020-10-24T12:50:51.000Z</time>
      </trkpt>
      <trkpt lat="48.5093" lon="7.16278">
        <ele>910</ele>
        <time>2020-10-24T12:51:01.000Z</time>
      </trkpt>
      <trkpt lat="48.50936" lon="7.16293">
        <ele>910</ele>
        <time>2020-10-24T12:51:11.000Z</time>
      </trkpt>
      <trkpt lat="48.50945" lon="7.16308">
        <ele>909</ele>
        <time>2020-10-24T12:51:21.000Z</time>
      </trkpt>
      <trkpt lat="48.50953" lon="7.16323">
        <ele>910</ele>
        <time>2020-10-24T12:51:31.000Z</time>
      </trkpt>
      <trkpt lat="48.50959" lon="7.1633">
        <ele>911</ele>
        <time>2020-10-24T12:51:41.000Z</time>
      </trkpt>
      <trkpt lat="48.50961" lon="7.16336">
        <ele>899</ele>
        <time>2020-10-24T12:51:51.000Z</time>
      </trkpt>
      <trkpt lat="48.50962" lon="7.16341">
        <ele>899</ele>
        <time>2020-10-24T12:52:52.000Z</time>
      </trkpt>
      <trkpt lat="48.50964" lon="7.16341">
        <ele>900</ele>
        <time>2020-10-24T12:53:02.000Z</time>
      </trkpt>
      <trkpt lat="48.50968" lon="7.16342">
        <ele>901</ele>
        <time>2020-10-24T12:53:12.000Z</time>
      </trkpt>
      <trkpt lat="48.50975" lon="7.16344">
        <ele>903</ele>
        <time>2020-10-24T12:53:22.000Z</time>
      </trkpt>
      <trkpt lat="48.50985" lon="7.16347">
        <ele>907</ele>
        <time>2020-10-24T12:53:32.000Z</time>
      </trkpt>
      <trkpt lat="48.50995" lon="7.1635">
        <ele>908</ele>
        <time>2020-10-24T12:53:42.000Z</time>
      </trkpt>
      <trkpt lat="48.51" lon="7.16355">
        <ele>907</ele>
        <time>2020-10-24T12:53:52.000Z</time>
      </trkpt>
      <trkpt lat="48.51006" lon="7.16359">
        <ele>921</ele>
        <time>2020-10-24T12:54:02.000Z</time>
      </trkpt>
      <trkpt lat="48.51016" lon="7.16364">
        <ele>921</ele>
        <time>2020-10-24T12:54:12.000Z</time>
      </trkpt>
      <trkpt lat="48.51028" lon="7.16378">
        <ele>920</ele>
        <time>2020-10-24T12:54:22.000Z</time>
      </trkpt>
      <trkpt lat="48.5104" lon="7.16385">
        <ele>921</ele>
        <time>2020-10-24T12:54:32.000Z</time>
      </trkpt>
      <trkpt lat="48.51052" lon="7.16392">
        <ele>923</ele>
        <time>2020-10-24T12:54:42.000Z</time>
      </trkpt>
      <trkpt lat="48.51055" lon="7.16396">
        <ele>923</ele>
        <time>2020-10-24T12:54:52.000Z</time>
      </trkpt>
      <trkpt lat="48.51061" lon="7.16395">
        <ele>924</ele>
        <time>2020-10-24T12:55:02.000Z</time>
      </trkpt>
      <trkpt lat="48.51063" lon="7.16393">
        <ele>924</ele>
        <time>2020-10-24T12:55:12.000Z</time>
      </trkpt>
      <trkpt lat="48.51065" lon="7.16391">
        <ele>924</ele>
        <time>2020-10-24T12:55:22.000Z</time>
      </trkpt>
      <trkpt lat="48.51072" lon="7.16392">
        <ele>925</ele>
        <time>2020-10-24T12:55:32.000Z</time>
      </trkpt>
      <trkpt lat="48.51078" lon="7.16387">
        <ele>926</ele>
        <time>2020-10-24T12:55:42.000Z</time>
      </trkpt>
      <trkpt lat="48.51083" lon="7.16381">
        <ele>927</ele>
        <time>2020-10-24T12:55:52.000Z</time>
      </trkpt>
      <trkpt lat="48.51085" lon="7.16379">
        <ele>945</ele>
        <time>2020-10-24T12:56:02.000Z</time>
      </trkpt>
      <trkpt lat="48.51084" lon="7.16366">
        <ele>947</ele>
        <time>2020-10-24T12:56:12.000Z</time>
      </trkpt>
      <trkpt lat="48.51086" lon="7.16349">
        <ele>947</ele>
        <time>2020-10-24T12:56:22.000Z</time>
      </trkpt>
      <trkpt lat="48.51087" lon="7.16326">
        <ele>948</ele>
        <time>2020-10-24T12:56:32.000Z</time>
      </trkpt>
      <trkpt lat="48.51082" lon="7.16305">
        <ele>944</ele>
        <time>2020-10-24T12:56:42.000Z</time>
      </trkpt>
      <trkpt lat="48.51074" lon="7.16292">
        <ele>945</ele>
        <time>2020-10-24T12:56:52.000Z</time>
      </trkpt>
      <trkpt lat="48.5107" lon="7.16281">
        <ele>946</ele>
        <time>2020-10-24T12:57:02.000Z</time>
      </trkpt>
      <trkpt lat="48.51062" lon="7.16267">
        <ele>948</ele>
        <time>2020-10-24T12:57:12.000Z</time>
      </trkpt>
      <trkpt lat="48.51055" lon="7.16253">
        <ele>948</ele>
        <time>2020-10-24T12:57:22.000Z</time>
      </trkpt>
      <trkpt lat="48.5105" lon="7.16248">
        <ele>954</ele>
        <time>2020-10-24T12:57:32.000Z</time>
      </trkpt>
      <trkpt lat="48.51041" lon="7.16237">
        <ele>954</ele>
        <time>2020-10-24T12:57:42.000Z</time>
      </trkpt>
      <trkpt lat="48.51036" lon="7.16223">
        <ele>954</ele>
        <time>2020-10-24T12:57:52.000Z</time>
      </trkpt>
      <trkpt lat="48.51035" lon="7.16209">
        <ele>955</ele>
        <time>2020-10-24T12:58:02.000Z</time>
      </trkpt>
      <trkpt lat="48.51039" lon="7.16207">
        <ele>955</ele>
        <time>2020-10-24T12:58:12.000Z</time>
      </trkpt>
      <trkpt lat="48.51047" lon="7.16213">
        <ele>955</ele>
        <time>2020-10-24T12:58:22.000Z</time>
      </trkpt>
      <trkpt lat="48.51056" lon="7.16214">
        <ele>955</ele>
        <time>2020-10-24T12:58:32.000Z</time>
      </trkpt>
      <trkpt lat="48.5106" lon="7.16208">
        <ele>955</ele>
        <time>2020-10-24T12:58:42.000Z</time>
      </trkpt>
      <trkpt lat="48.51063" lon="7.16206">
        <ele>955</ele>
        <time>2020-10-24T12:58:52.000Z</time>
      </trkpt>
      <trkpt lat="48.51064" lon="7.16204">
        <ele>955</ele>
        <time>2020-10-24T12:59:02.000Z</time>
      </trkpt>
      <trkpt lat="48.51064" lon="7.1621">
        <ele>955</ele>
        <time>2020-10-24T12:59:12.000Z</time>
      </trkpt>
      <trkpt lat="48.51072" lon="7.16229">
        <ele>956</ele>
        <time>2020-10-24T12:59:22.000Z</time>
      </trkpt>
      <trkpt lat="48.51082" lon="7.16239">
        <ele>957</ele>
        <time>2020-10-24T12:59:32.000Z</time>
      </trkpt>
      <trkpt lat="48.51082" lon="7.16237">
        <ele>956</ele>
        <time>2020-10-24T13:00:20.000Z</time>
      </trkpt>
      <trkpt lat="48.51091" lon="7.16224">
        <ele>956</ele>
        <time>2020-10-24T13:00:30.000Z</time>
      </trkpt>
      <trkpt lat="48.51094" lon="7.16212">
        <ele>955</ele>
        <time>2020-10-24T13:00:40.000Z</time>
      </trkpt>
      <trkpt lat="48.51095" lon="7.16212">
        <ele>955</ele>
        <time>2020-10-24T13:01:00.000Z</time>
      </trkpt>
      <trkpt lat="48.51095" lon="7.16214">
        <ele>955</ele>
        <time>2020-10-24T13:01:21.000Z</time>
      </trkpt>
      <trkpt lat="48.51091" lon="7.1623">
        <ele>956</ele>
        <time>2020-10-24T13:01:31.000Z</time>
      </trkpt>
      <trkpt lat="48.51092" lon="7.16246">
        <ele>957</ele>
        <time>2020-10-24T13:01:41.000Z</time>
      </trkpt>
      <trkpt lat="48.51101" lon="7.16255">
        <ele>958</ele>
        <time>2020-10-24T13:01:51.000Z</time>
      </trkpt>
      <trkpt lat="48.51111" lon="7.16266">
        <ele>958</ele>
        <time>2020-10-24T13:02:01.000Z</time>
      </trkpt>
      <trkpt lat="48.5112" lon="7.16277">
        <ele>958</ele>
        <time>2020-10-24T13:02:11.000Z</time>
      </trkpt>
      <trkpt lat="48.5113" lon="7.16287">
        <ele>959</ele>
        <time>2020-10-24T13:02:21.000Z</time>
      </trkpt>
      <trkpt lat="48.51141" lon="7.16301">
        <ele>960</ele>
        <time>2020-10-24T13:02:31.000Z</time>
      </trkpt>
      <trkpt lat="48.51152" lon="7.16313">
        <ele>962</ele>
        <time>2020-10-24T13:02:41.000Z</time>
      </trkpt>
      <trkpt lat="48.51161" lon="7.16321">
        <ele>965</ele>
        <time>2020-10-24T13:02:51.000Z</time>
      </trkpt>
      <trkpt lat="48.51169" lon="7.16324">
        <ele>968</ele>
        <time>2020-10-24T13:03:01.000Z</time>
      </trkpt>
      <trkpt lat="48.51177" lon="7.16329">
        <ele>968</ele>
        <time>2020-10-24T13:03:11.000Z</time>
      </trkpt>
      <trkpt lat="48.51185" lon="7.16334">
        <ele>972</ele>
        <time>2020-10-24T13:03:21.000Z</time>
      </trkpt>
      <trkpt lat="48.51193" lon="7.16342">
        <ele>973</ele>
        <time>2020-10-24T13:03:31.000Z</time>
      </trkpt>
      <trkpt lat="48.512" lon="7.16351">
        <ele>974</ele>
        <time>2020-10-24T13:03:41.000Z</time>
      </trkpt>
      <trkpt lat="48.512" lon="7.16358">
        <ele>974</ele>
        <time>2020-10-24T13:03:51.000Z</time>
      </trkpt>
      <trkpt lat="48.51202" lon="7.16362">
        <ele>974</ele>
        <time>2020-10-24T13:04:01.000Z</time>
      </trkpt>
      <trkpt lat="48.5121" lon="7.1637">
        <ele>975</ele>
        <time>2020-10-24T13:04:11.000Z</time>
      </trkpt>
      <trkpt lat="48.51219" lon="7.16378">
        <ele>976</ele>
        <time>2020-10-24T13:04:21.000Z</time>
      </trkpt>
      <trkpt lat="48.51225" lon="7.16385">
        <ele>977</ele>
        <time>2020-10-24T13:04:31.000Z</time>
      </trkpt>
      <trkpt lat="48.51227" lon="7.16388">
        <ele>977</ele>
        <time>2020-10-24T13:04:41.000Z</time>
      </trkpt>
      <trkpt lat="48.51228" lon="7.16388">
        <ele>978</ele>
        <time>2020-10-24T13:04:53.000Z</time>
      </trkpt>
      <trkpt lat="48.51228" lon="7.16383">
        <ele>977</ele>
        <time>2020-10-24T13:05:03.000Z</time>
      </trkpt>
      <trkpt lat="48.51228" lon="7.16385">
        <ele>977</ele>
        <time>2020-10-24T13:05:13.000Z</time>
      </trkpt>
      <trkpt lat="48.51229" lon="7.16387">
        <ele>977</ele>
        <time>2020-10-24T13:05:23.000Z</time>
      </trkpt>
      <trkpt lat="48.51239" lon="7.16397">
        <ele>980</ele>
        <time>2020-10-24T13:05:33.000Z</time>
      </trkpt>
      <trkpt lat="48.51246" lon="7.16406">
        <ele>984</ele>
        <time>2020-10-24T13:05:43.000Z</time>
      </trkpt>
      <trkpt lat="48.51251" lon="7.16407">
        <ele>982</ele>
        <time>2020-10-24T13:05:53.000Z</time>
      </trkpt>
      <trkpt lat="48.51254" lon="7.16409">
        <ele>983</ele>
        <time>2020-10-24T13:06:03.000Z</time>
      </trkpt>
      <trkpt lat="48.51257" lon="7.16413">
        <ele>983</ele>
        <time>2020-10-24T13:06:13.000Z</time>
      </trkpt>
      <trkpt lat="48.51258" lon="7.16413">
        <ele>982</ele>
        <time>2020-10-24T13:06:29.000Z</time>
      </trkpt>
      <trkpt lat="48.51257" lon="7.16414">
        <ele>983</ele>
        <time>2020-10-24T13:06:55.000Z</time>
      </trkpt>
      <trkpt lat="48.5125" lon="7.16416">
        <ele>988</ele>
        <time>2020-10-24T13:07:05.000Z</time>
      </trkpt>
      <trkpt lat="48.51245" lon="7.16415">
        <ele>986</ele>
        <time>2020-10-24T13:07:15.000Z</time>
      </trkpt>
      <trkpt lat="48.51243" lon="7.16415">
        <ele>985</ele>
        <time>2020-10-24T13:07:34.000Z</time>
      </trkpt>
      <trkpt lat="48.51243" lon="7.16413">
        <ele>985</ele>
        <time>2020-10-24T13:08:16.000Z</time>
      </trkpt>
      <trkpt lat="48.51242" lon="7.16409">
        <ele>983</ele>
        <time>2020-10-24T13:08:26.000Z</time>
      </trkpt>
      <trkpt lat="48.51239" lon="7.16406">
        <ele>982</ele>
        <time>2020-10-24T13:08:36.000Z</time>
      </trkpt>
      <trkpt lat="48.51238" lon="7.16404">
        <ele>981</ele>
        <time>2020-10-24T13:08:46.000Z</time>
      </trkpt>
      <trkpt lat="48.51237" lon="7.16404">
        <ele>981</ele>
        <time>2020-10-24T13:09:03.000Z</time>
      </trkpt>
      <trkpt lat="48.51236" lon="7.16407">
        <ele>982</ele>
        <time>2020-10-24T13:09:13.000Z</time>
      </trkpt>
      <trkpt lat="48.51237" lon="7.16409">
        <ele>982</ele>
        <time>2020-10-24T13:09:28.000Z</time>
      </trkpt>
      <trkpt lat="48.51242" lon="7.16419">
        <ele>985</ele>
        <time>2020-10-24T13:09:38.000Z</time>
      </trkpt>
      <trkpt lat="48.51249" lon="7.16426">
        <ele>985</ele>
        <time>2020-10-24T13:09:48.000Z</time>
      </trkpt>
      <trkpt lat="48.5125" lon="7.16427">
        <ele>985</ele>
        <time>2020-10-24T13:09:58.000Z</time>
      </trkpt>
      <trkpt lat="48.51247" lon="7.16425">
        <ele>985</ele>
        <time>2020-10-24T13:10:26.000Z</time>
      </trkpt>
      <trkpt lat="48.51249" lon="7.16427">
        <ele>985</ele>
        <time>2020-10-24T13:10:36.000Z</time>
      </trkpt>
      <trkpt lat="48.51248" lon="7.16424">
        <ele>986</ele>
        <time>2020-10-24T13:11:54.000Z</time>
      </trkpt>
      <trkpt lat="48.51244" lon="7.16418">
        <ele>986</ele>
        <time>2020-10-24T13:12:04.000Z</time>
      </trkpt>
      <trkpt lat="48.51246" lon="7.16417">
        <ele>987</ele>
        <time>2020-10-24T13:12:17.000Z</time>
      </trkpt>
      <trkpt lat="48.51251" lon="7.16417">
        <ele>989</ele>
        <time>2020-10-24T13:12:27.000Z</time>
      </trkpt>
      <trkpt lat="48.51251" lon="7.16419">
        <ele>988</ele>
        <time>2020-10-24T13:13:10.000Z</time>
      </trkpt>
      <trkpt lat="48.51256" lon="7.16431">
        <ele>984</ele>
        <time>2020-10-24T13:13:20.000Z</time>
      </trkpt>
      <trkpt lat="48.51254" lon="7.16434">
        <ele>984</ele>
        <time>2020-10-24T13:13:30.000Z</time>
      </trkpt>
      <trkpt lat="48.51256" lon="7.16442">
        <ele>983</ele>
        <time>2020-10-24T13:13:40.000Z</time>
      </trkpt>
      <trkpt lat="48.51255" lon="7.16442">
        <ele>983</ele>
        <time>2020-10-24T13:14:00.000Z</time>
      </trkpt>
      <trkpt lat="48.51255" lon="7.16447">
        <ele>983</ele>
        <time>2020-10-24T13:14:10.000Z</time>
      </trkpt>
      <trkpt lat="48.51258" lon="7.16462">
        <ele>983</ele>
        <time>2020-10-24T13:14:20.000Z</time>
      </trkpt>
      <trkpt lat="48.5126" lon="7.16467">
        <ele>983</ele>
        <time>2020-10-24T13:14:30.000Z</time>
      </trkpt>
      <trkpt lat="48.51261" lon="7.16468">
        <ele>983</ele>
        <time>2020-10-24T13:21:14.000Z</time>
      </trkpt>
      <trkpt lat="48.51267" lon="7.16479">
        <ele>984</ele>
        <time>2020-10-24T13:21:24.000Z</time>
      </trkpt>
      <trkpt lat="48.51273" lon="7.1649">
        <ele>984</ele>
        <time>2020-10-24T13:21:34.000Z</time>
      </trkpt>
      <trkpt lat="48.51274" lon="7.16511">
        <ele>983</ele>
        <time>2020-10-24T13:21:44.000Z</time>
      </trkpt>
      <trkpt lat="48.51278" lon="7.16522">
        <ele>981</ele>
        <time>2020-10-24T13:21:54.000Z</time>
      </trkpt>
      <trkpt lat="48.51282" lon="7.1653">
        <ele>980</ele>
        <time>2020-10-24T13:22:04.000Z</time>
      </trkpt>
      <trkpt lat="48.51282" lon="7.16533">
        <ele>980</ele>
        <time>2020-10-24T13:22:14.000Z</time>
      </trkpt>
      <trkpt lat="48.51282" lon="7.16537">
        <ele>979</ele>
        <time>2020-10-24T13:22:24.000Z</time>
      </trkpt>
      <trkpt lat="48.51281" lon="7.16539">
        <ele>979</ele>
        <time>2020-10-24T13:22:34.000Z</time>
      </trkpt>
      <trkpt lat="48.51282" lon="7.16539">
        <ele>979</ele>
        <time>2020-10-24T13:23:05.000Z</time>
      </trkpt>
      <trkpt lat="48.51283" lon="7.16539">
        <ele>979</ele>
        <time>2020-10-24T13:23:15.000Z</time>
      </trkpt>
      <trkpt lat="48.51282" lon="7.16539">
        <ele>979</ele>
        <time>2020-10-24T13:24:10.000Z</time>
      </trkpt>
      <trkpt lat="48.51281" lon="7.16535">
        <ele>980</ele>
        <time>2020-10-24T13:24:20.000Z</time>
      </trkpt>
      <trkpt lat="48.51281" lon="7.16537">
        <ele>979</ele>
        <time>2020-10-24T13:24:35.000Z</time>
      </trkpt>
      <trkpt lat="48.51282" lon="7.16541">
        <ele>979</ele>
        <time>2020-10-24T13:24:45.000Z</time>
      </trkpt>
      <trkpt lat="48.51281" lon="7.16548">
        <ele>979</ele>
        <time>2020-10-24T13:24:55.000Z</time>
      </trkpt>
      <trkpt lat="48.51282" lon="7.16552">
        <ele>978</ele>
        <time>2020-10-24T13:25:05.000Z</time>
      </trkpt>
      <trkpt lat="48.51282" lon="7.16553">
        <ele>978</ele>
        <time>2020-10-24T13:25:15.000Z</time>
      </trkpt>
      <trkpt lat="48.51285" lon="7.16555">
        <ele>978</ele>
        <time>2020-10-24T13:25:25.000Z</time>
      </trkpt>
      <trkpt lat="48.51287" lon="7.16556">
        <ele>978</ele>
        <time>2020-10-24T13:25:35.000Z</time>
      </trkpt>
      <trkpt lat="48.51288" lon="7.16557">
        <ele>978</ele>
        <time>2020-10-24T13:26:07.000Z</time>
      </trkpt>
      <trkpt lat="48.51288" lon="7.16564">
        <ele>977</ele>
        <time>2020-10-24T13:26:17.000Z</time>
      </trkpt>
      <trkpt lat="48.51287" lon="7.16564">
        <ele>978</ele>
        <time>2020-10-24T13:26:27.000Z</time>
      </trkpt>
      <trkpt lat="48.51287" lon="7.16567">
        <ele>977</ele>
        <time>2020-10-24T13:26:44.000Z</time>
      </trkpt>
      <trkpt lat="48.51289" lon="7.16576">
        <ele>977</ele>
        <time>2020-10-24T13:26:54.000Z</time>
      </trkpt>
      <trkpt lat="48.51289" lon="7.16578">
        <ele>977</ele>
        <time>2020-10-24T13:27:04.000Z</time>
      </trkpt>
      <trkpt lat="48.51294" lon="7.1658">
        <ele>976</ele>
        <time>2020-10-24T13:27:14.000Z</time>
      </trkpt>
      <trkpt lat="48.51299" lon="7.1658">
        <ele>976</ele>
        <time>2020-10-24T13:27:24.000Z</time>
      </trkpt>
      <trkpt lat="48.51308" lon="7.16578">
        <ele>975</ele>
        <time>2020-10-24T13:27:34.000Z</time>
      </trkpt>
      <trkpt lat="48.51312" lon="7.16575">
        <ele>975</ele>
        <time>2020-10-24T13:27:44.000Z</time>
      </trkpt>
      <trkpt lat="48.51314" lon="7.16579">
        <ele>974</ele>
        <time>2020-10-24T13:27:54.000Z</time>
      </trkpt>
      <trkpt lat="48.51313" lon="7.16584">
        <ele>965</ele>
        <time>2020-10-24T13:28:04.000Z</time>
      </trkpt>
      <trkpt lat="48.51313" lon="7.16586">
        <ele>965</ele>
        <time>2020-10-24T13:28:14.000Z</time>
      </trkpt>
      <trkpt lat="48.51308" lon="7.16593">
        <ele>964</ele>
        <time>2020-10-24T13:28:24.000Z</time>
      </trkpt>
      <trkpt lat="48.51302" lon="7.16599">
        <ele>964</ele>
        <time>2020-10-24T13:28:34.000Z</time>
      </trkpt>
      <trkpt lat="48.51299" lon="7.16603">
        <ele>963</ele>
        <time>2020-10-24T13:28:44.000Z</time>
      </trkpt>
      <trkpt lat="48.51297" lon="7.16607">
        <ele>963</ele>
        <time>2020-10-24T13:28:54.000Z</time>
      </trkpt>
      <trkpt lat="48.51293" lon="7.16611">
        <ele>962</ele>
        <time>2020-10-24T13:29:04.000Z</time>
      </trkpt>
      <trkpt lat="48.51291" lon="7.16612">
        <ele>962</ele>
        <time>2020-10-24T13:29:14.000Z</time>
      </trkpt>
      <trkpt lat="48.51289" lon="7.16612">
        <ele>962</ele>
        <time>2020-10-24T13:29:24.000Z</time>
      </trkpt>
      <trkpt lat="48.51288" lon="7.16612">
        <ele>962</ele>
        <time>2020-10-24T13:29:45.000Z</time>
      </trkpt>
      <trkpt lat="48.51285" lon="7.16613">
        <ele>962</ele>
        <time>2020-10-24T13:29:55.000Z</time>
      </trkpt>
      <trkpt lat="48.51284" lon="7.16613">
        <ele>962</ele>
        <time>2020-10-24T13:30:19.000Z</time>
      </trkpt>
      <trkpt lat="48.51284" lon="7.16614">
        <ele>962</ele>
        <time>2020-10-24T13:30:46.000Z</time>
      </trkpt>
      <trkpt lat="48.51296" lon="7.16621">
        <ele>961</ele>
        <time>2020-10-24T13:30:56.000Z</time>
      </trkpt>
      <trkpt lat="48.51301" lon="7.1662">
        <ele>960</ele>
        <time>2020-10-24T13:31:06.000Z</time>
      </trkpt>
      <trkpt lat="48.51304" lon="7.16619">
        <ele>960</ele>
        <time>2020-10-24T13:31:16.000Z</time>
      </trkpt>
      <trkpt lat="48.51302" lon="7.1662">
        <ele>960</ele>
        <time>2020-10-24T13:31:46.000Z</time>
      </trkpt>
      <trkpt lat="48.51292" lon="7.16621">
        <ele>961</ele>
        <time>2020-10-24T13:31:56.000Z</time>
      </trkpt>
      <trkpt lat="48.51289" lon="7.16622">
        <ele>961</ele>
        <time>2020-10-24T13:32:06.000Z</time>
      </trkpt>
      <trkpt lat="48.5129" lon="7.16621">
        <ele>961</ele>
        <time>2020-10-24T13:32:18.000Z</time>
      </trkpt>
      <trkpt lat="48.51295" lon="7.16621">
        <ele>960</ele>
        <time>2020-10-24T13:32:28.000Z</time>
      </trkpt>
      <trkpt lat="48.51301" lon="7.16618">
        <ele>961</ele>
        <time>2020-10-24T13:32:38.000Z</time>
      </trkpt>
      <trkpt lat="48.5131" lon="7.16616">
        <ele>961</ele>
        <time>2020-10-24T13:32:48.000Z</time>
      </trkpt>
      <trkpt lat="48.5132" lon="7.1661">
        <ele>962</ele>
        <time>2020-10-24T13:32:58.000Z</time>
      </trkpt>
      <trkpt lat="48.51329" lon="7.16604">
        <ele>963</ele>
        <time>2020-10-24T13:33:08.000Z</time>
      </trkpt>
      <trkpt lat="48.51338" lon="7.16597">
        <ele>956</ele>
        <time>2020-10-24T13:33:18.000Z</time>
      </trkpt>
      <trkpt lat="48.51343" lon="7.16594">
        <ele>956</ele>
        <time>2020-10-24T13:33:28.000Z</time>
      </trkpt>
      <trkpt lat="48.5135" lon="7.16583">
        <ele>959</ele>
        <time>2020-10-24T13:33:38.000Z</time>
      </trkpt>
      <trkpt lat="48.51358" lon="7.16573">
        <ele>955</ele>
        <time>2020-10-24T13:33:48.000Z</time>
      </trkpt>
      <trkpt lat="48.51362" lon="7.16566">
        <ele>954</ele>
        <time>2020-10-24T13:33:58.000Z</time>
      </trkpt>
      <trkpt lat="48.51363" lon="7.16554">
        <ele>952</ele>
        <time>2020-10-24T13:34:08.000Z</time>
      </trkpt>
      <trkpt lat="48.51364" lon="7.16542">
        <ele>952</ele>
        <time>2020-10-24T13:34:18.000Z</time>
      </trkpt>
      <trkpt lat="48.51365" lon="7.16531">
        <ele>952</ele>
        <time>2020-10-24T13:34:28.000Z</time>
      </trkpt>
      <trkpt lat="48.51367" lon="7.16521">
        <ele>952</ele>
        <time>2020-10-24T13:34:38.000Z</time>
      </trkpt>
      <trkpt lat="48.51368" lon="7.16514">
        <ele>952</ele>
        <time>2020-10-24T13:34:48.000Z</time>
      </trkpt>
      <trkpt lat="48.51374" lon="7.1651">
        <ele>950</ele>
        <time>2020-10-24T13:34:58.000Z</time>
      </trkpt>
      <trkpt lat="48.51377" lon="7.16511">
        <ele>949</ele>
        <time>2020-10-24T13:35:08.000Z</time>
      </trkpt>
      <trkpt lat="48.51378" lon="7.16518">
        <ele>948</ele>
        <time>2020-10-24T13:35:18.000Z</time>
      </trkpt>
      <trkpt lat="48.51381" lon="7.16524">
        <ele>947</ele>
        <time>2020-10-24T13:35:28.000Z</time>
      </trkpt>
      <trkpt lat="48.51385" lon="7.16532">
        <ele>947</ele>
        <time>2020-10-24T13:35:38.000Z</time>
      </trkpt>
      <trkpt lat="48.51386" lon="7.16543">
        <ele>946</ele>
        <time>2020-10-24T13:35:48.000Z</time>
      </trkpt>
      <trkpt lat="48.51387" lon="7.16552">
        <ele>946</ele>
        <time>2020-10-24T13:35:58.000Z</time>
      </trkpt>
      <trkpt lat="48.5139" lon="7.16561">
        <ele>944</ele>
        <time>2020-10-24T13:36:08.000Z</time>
      </trkpt>
      <trkpt lat="48.51392" lon="7.16569">
        <ele>943</ele>
        <time>2020-10-24T13:36:18.000Z</time>
      </trkpt>
      <trkpt lat="48.51394" lon="7.16572">
        <ele>942</ele>
        <time>2020-10-24T13:36:28.000Z</time>
      </trkpt>
      <trkpt lat="48.51399" lon="7.16568">
        <ele>941</ele>
        <time>2020-10-24T13:36:38.000Z</time>
      </trkpt>
      <trkpt lat="48.51402" lon="7.16567">
        <ele>940</ele>
        <time>2020-10-24T13:36:48.000Z</time>
      </trkpt>
      <trkpt lat="48.51404" lon="7.16562">
        <ele>940</ele>
        <time>2020-10-24T13:36:58.000Z</time>
      </trkpt>
      <trkpt lat="48.51408" lon="7.16553">
        <ele>941</ele>
        <time>2020-10-24T13:37:08.000Z</time>
      </trkpt>
      <trkpt lat="48.51409" lon="7.16545">
        <ele>942</ele>
        <time>2020-10-24T13:37:18.000Z</time>
      </trkpt>
      <trkpt lat="48.51409" lon="7.16542">
        <ele>942</ele>
        <time>2020-10-24T13:37:28.000Z</time>
      </trkpt>
      <trkpt lat="48.5141" lon="7.16525">
        <ele>940</ele>
        <time>2020-10-24T13:37:38.000Z</time>
      </trkpt>
      <trkpt lat="48.51413" lon="7.16515">
        <ele>937</ele>
        <time>2020-10-24T13:37:48.000Z</time>
      </trkpt>
      <trkpt lat="48.51414" lon="7.16505">
        <ele>931</ele>
        <time>2020-10-24T13:37:58.000Z</time>
      </trkpt>
      <trkpt lat="48.51416" lon="7.165">
        <ele>928</ele>
        <time>2020-10-24T13:38:08.000Z</time>
      </trkpt>
      <trkpt lat="48.51414" lon="7.16494">
        <ele>931</ele>
        <time>2020-10-24T13:38:18.000Z</time>
      </trkpt>
      <trkpt lat="48.51416" lon="7.16498">
        <ele>928</ele>
        <time>2020-10-24T13:38:28.000Z</time>
      </trkpt>
      <trkpt lat="48.51419" lon="7.16505">
        <ele>924</ele>
        <time>2020-10-24T13:38:38.000Z</time>
      </trkpt>
      <trkpt lat="48.51421" lon="7.1651">
        <ele>921</ele>
        <time>2020-10-24T13:38:48.000Z</time>
      </trkpt>
      <trkpt lat="48.51423" lon="7.16516">
        <ele>919</ele>
        <time>2020-10-24T13:38:58.000Z</time>
      </trkpt>
      <trkpt lat="48.51425" lon="7.16524">
        <ele>917</ele>
        <time>2020-10-24T13:39:08.000Z</time>
      </trkpt>
      <trkpt lat="48.51427" lon="7.16533">
        <ele>916</ele>
        <time>2020-10-24T13:39:18.000Z</time>
      </trkpt>
      <trkpt lat="48.51429" lon="7.1654">
        <ele>915</ele>
        <time>2020-10-24T13:39:28.000Z</time>
      </trkpt>
      <trkpt lat="48.5143" lon="7.16542">
        <ele>915</ele>
        <time>2020-10-24T13:39:38.000Z</time>
      </trkpt>
      <trkpt lat="48.51431" lon="7.16545">
        <ele>915</ele>
        <time>2020-10-24T13:39:48.000Z</time>
      </trkpt>
      <trkpt lat="48.51434" lon="7.16548">
        <ele>915</ele>
        <time>2020-10-24T13:39:58.000Z</time>
      </trkpt>
      <trkpt lat="48.51435" lon="7.16549">
        <ele>915</ele>
        <time>2020-10-24T13:40:08.000Z</time>
      </trkpt>
      <trkpt lat="48.51436" lon="7.16549">
        <ele>914</ele>
        <time>2020-10-24T13:41:07.000Z</time>
      </trkpt>
      <trkpt lat="48.51441" lon="7.16548">
        <ele>914</ele>
        <time>2020-10-24T13:41:17.000Z</time>
      </trkpt>
      <trkpt lat="48.51442" lon="7.16547">
        <ele>913</ele>
        <time>2020-10-24T13:41:27.000Z</time>
      </trkpt>
      <trkpt lat="48.51443" lon="7.16547">
        <ele>913</ele>
        <time>2020-10-24T13:41:56.000Z</time>
      </trkpt>
      <trkpt lat="48.51445" lon="7.16548">
        <ele>913</ele>
        <time>2020-10-24T13:42:06.000Z</time>
      </trkpt>
      <trkpt lat="48.51451" lon="7.16553">
        <ele>912</ele>
        <time>2020-10-24T13:42:16.000Z</time>
      </trkpt>
      <trkpt lat="48.51452" lon="7.16561">
        <ele>912</ele>
        <time>2020-10-24T13:42:26.000Z</time>
      </trkpt>
      <trkpt lat="48.51455" lon="7.16566">
        <ele>911</ele>
        <time>2020-10-24T13:42:36.000Z</time>
      </trkpt>
      <trkpt lat="48.51456" lon="7.16564">
        <ele>911</ele>
        <time>2020-10-24T13:43:00.000Z</time>
      </trkpt>
      <trkpt lat="48.51458" lon="7.16561">
        <ele>910</ele>
        <time>2020-10-24T13:43:10.000Z</time>
      </trkpt>
      <trkpt lat="48.51458" lon="7.16564">
        <ele>910</ele>
        <time>2020-10-24T13:43:20.000Z</time>
      </trkpt>
      <trkpt lat="48.51458" lon="7.16572">
        <ele>910</ele>
        <time>2020-10-24T13:43:30.000Z</time>
      </trkpt>
      <trkpt lat="48.51459" lon="7.16576">
        <ele>910</ele>
        <time>2020-10-24T13:43:40.000Z</time>
      </trkpt>
      <trkpt lat="48.51464" lon="7.16595">
        <ele>906</ele>
        <time>2020-10-24T13:44:11.000Z</time>
      </trkpt>
      <trkpt lat="48.51466" lon="7.16612">
        <ele>906</ele>
        <time>2020-10-24T13:44:21.000Z</time>
      </trkpt>
      <trkpt lat="48.51468" lon="7.16634">
        <ele>904</ele>
        <time>2020-10-24T13:44:31.000Z</time>
      </trkpt>
      <trkpt lat="48.51466" lon="7.1665">
        <ele>904</ele>
        <time>2020-10-24T13:44:41.000Z</time>
      </trkpt>
      <trkpt lat="48.51465" lon="7.16662">
        <ele>903</ele>
        <time>2020-10-24T13:44:51.000Z</time>
      </trkpt>
      <trkpt lat="48.51461" lon="7.16671">
        <ele>895</ele>
        <time>2020-10-24T13:45:01.000Z</time>
      </trkpt>
      <trkpt lat="48.51457" lon="7.16674">
        <ele>896</ele>
        <time>2020-10-24T13:45:11.000Z</time>
      </trkpt>
      <trkpt lat="48.51452" lon="7.16678">
        <ele>897</ele>
        <time>2020-10-24T13:45:21.000Z</time>
      </trkpt>
      <trkpt lat="48.51453" lon="7.16682">
        <ele>896</ele>
        <time>2020-10-24T13:45:31.000Z</time>
      </trkpt>
      <trkpt lat="48.51459" lon="7.16687">
        <ele>895</ele>
        <time>2020-10-24T13:45:41.000Z</time>
      </trkpt>
      <trkpt lat="48.51467" lon="7.16694">
        <ele>893</ele>
        <time>2020-10-24T13:45:51.000Z</time>
      </trkpt>
      <trkpt lat="48.51468" lon="7.16697">
        <ele>893</ele>
        <time>2020-10-24T13:46:01.000Z</time>
      </trkpt>
      <trkpt lat="48.51467" lon="7.16698">
        <ele>893</ele>
        <time>2020-10-24T13:46:12.000Z</time>
      </trkpt>
      <trkpt lat="48.5146" lon="7.16703">
        <ele>893</ele>
        <time>2020-10-24T13:46:22.000Z</time>
      </trkpt>
      <trkpt lat="48.51455" lon="7.16711">
        <ele>893</ele>
        <time>2020-10-24T13:46:32.000Z</time>
      </trkpt>
      <trkpt lat="48.51448" lon="7.16716">
        <ele>893</ele>
        <time>2020-10-24T13:46:42.000Z</time>
      </trkpt>
      <trkpt lat="48.51444" lon="7.1672">
        <ele>893</ele>
        <time>2020-10-24T13:46:52.000Z</time>
      </trkpt>
      <trkpt lat="48.5143" lon="7.16733">
        <ele>893</ele>
        <time>2020-10-24T13:47:02.000Z</time>
      </trkpt>
      <trkpt lat="48.51422" lon="7.16744">
        <ele>893</ele>
        <time>2020-10-24T13:47:12.000Z</time>
      </trkpt>
      <trkpt lat="48.51418" lon="7.1675">
        <ele>892</ele>
        <time>2020-10-24T13:47:22.000Z</time>
      </trkpt>
      <trkpt lat="48.51421" lon="7.16752">
        <ele>889</ele>
        <time>2020-10-24T13:47:32.000Z</time>
      </trkpt>
      <trkpt lat="48.51423" lon="7.16753">
        <ele>888</ele>
        <time>2020-10-24T13:47:42.000Z</time>
      </trkpt>
      <trkpt lat="48.51426" lon="7.16753">
        <ele>886</ele>
        <time>2020-10-24T13:47:52.000Z</time>
      </trkpt>
      <trkpt lat="48.51436" lon="7.16754">
        <ele>882</ele>
        <time>2020-10-24T13:48:02.000Z</time>
      </trkpt>
      <trkpt lat="48.51447" lon="7.16755">
        <ele>879</ele>
        <time>2020-10-24T13:48:12.000Z</time>
      </trkpt>
      <trkpt lat="48.51455" lon="7.16765">
        <ele>876</ele>
        <time>2020-10-24T13:48:22.000Z</time>
      </trkpt>
      <trkpt lat="48.51466" lon="7.16764">
        <ele>875</ele>
        <time>2020-10-24T13:48:32.000Z</time>
      </trkpt>
      <trkpt lat="48.51476" lon="7.16764">
        <ele>874</ele>
        <time>2020-10-24T13:48:42.000Z</time>
      </trkpt>
      <trkpt lat="48.51485" lon="7.16769">
        <ele>873</ele>
        <time>2020-10-24T13:48:52.000Z</time>
      </trkpt>
      <trkpt lat="48.51497" lon="7.16773">
        <ele>873</ele>
        <time>2020-10-24T13:49:02.000Z</time>
      </trkpt>
      <trkpt lat="48.51511" lon="7.16765">
        <ele>864</ele>
        <time>2020-10-24T13:49:12.000Z</time>
      </trkpt>
      <trkpt lat="48.51525" lon="7.16753">
        <ele>862</ele>
        <time>2020-10-24T13:49:22.000Z</time>
      </trkpt>
      <trkpt lat="48.51534" lon="7.16743">
        <ele>867</ele>
        <time>2020-10-24T13:49:32.000Z</time>
      </trkpt>
      <trkpt lat="48.51536" lon="7.16734">
        <ele>866</ele>
        <time>2020-10-24T13:49:42.000Z</time>
      </trkpt>
      <trkpt lat="48.51542" lon="7.16722">
        <ele>866</ele>
        <time>2020-10-24T13:49:52.000Z</time>
      </trkpt>
      <trkpt lat="48.51548" lon="7.16706">
        <ele>866</ele>
        <time>2020-10-24T13:50:02.000Z</time>
      </trkpt>
      <trkpt lat="48.51553" lon="7.16685">
        <ele>866</ele>
        <time>2020-10-24T13:50:12.000Z</time>
      </trkpt>
      <trkpt lat="48.51562" lon="7.16676">
        <ele>863</ele>
        <time>2020-10-24T13:50:22.000Z</time>
      </trkpt>
      <trkpt lat="48.51563" lon="7.16686">
        <ele>863</ele>
        <time>2020-10-24T13:50:32.000Z</time>
      </trkpt>
      <trkpt lat="48.51563" lon="7.16692">
        <ele>863</ele>
        <time>2020-10-24T13:50:42.000Z</time>
      </trkpt>
      <trkpt lat="48.51565" lon="7.16709">
        <ele>863</ele>
        <time>2020-10-24T13:50:52.000Z</time>
      </trkpt>
      <trkpt lat="48.51566" lon="7.16724">
        <ele>861</ele>
        <time>2020-10-24T13:51:02.000Z</time>
      </trkpt>
      <trkpt lat="48.51567" lon="7.16741">
        <ele>858</ele>
        <time>2020-10-24T13:51:12.000Z</time>
      </trkpt>
      <trkpt lat="48.51571" lon="7.16756">
        <ele>852</ele>
        <time>2020-10-24T13:51:22.000Z</time>
      </trkpt>
      <trkpt lat="48.51572" lon="7.16772">
        <ele>853</ele>
        <time>2020-10-24T13:51:32.000Z</time>
      </trkpt>
      <trkpt lat="48.51573" lon="7.1679">
        <ele>853</ele>
        <time>2020-10-24T13:51:42.000Z</time>
      </trkpt>
      <trkpt lat="48.51573" lon="7.16804">
        <ele>851</ele>
        <time>2020-10-24T13:51:52.000Z</time>
      </trkpt>
      <trkpt lat="48.51576" lon="7.16822">
        <ele>847</ele>
        <time>2020-10-24T13:52:02.000Z</time>
      </trkpt>
      <trkpt lat="48.51578" lon="7.16838">
        <ele>842</ele>
        <time>2020-10-24T13:52:12.000Z</time>
      </trkpt>
      <trkpt lat="48.51579" lon="7.16855">
        <ele>843</ele>
        <time>2020-10-24T13:52:22.000Z</time>
      </trkpt>
      <trkpt lat="48.51579" lon="7.1687">
        <ele>842</ele>
        <time>2020-10-24T13:52:32.000Z</time>
      </trkpt>
      <trkpt lat="48.51579" lon="7.16883">
        <ele>841</ele>
        <time>2020-10-24T13:52:42.000Z</time>
      </trkpt>
      <trkpt lat="48.51579" lon="7.16902">
        <ele>839</ele>
        <time>2020-10-24T13:52:52.000Z</time>
      </trkpt>
      <trkpt lat="48.51579" lon="7.16918">
        <ele>835</ele>
        <time>2020-10-24T13:53:02.000Z</time>
      </trkpt>
      <trkpt lat="48.51576" lon="7.16936">
        <ele>833</ele>
        <time>2020-10-24T13:53:12.000Z</time>
      </trkpt>
      <trkpt lat="48.51575" lon="7.16952">
        <ele>832</ele>
        <time>2020-10-24T13:53:22.000Z</time>
      </trkpt>
      <trkpt lat="48.51573" lon="7.16957">
        <ele>831</ele>
        <time>2020-10-24T13:53:32.000Z</time>
      </trkpt>
      <trkpt lat="48.51577" lon="7.16968">
        <ele>831</ele>
        <time>2020-10-24T13:53:42.000Z</time>
      </trkpt>
      <trkpt lat="48.51577" lon="7.16977">
        <ele>830</ele>
        <time>2020-10-24T13:53:52.000Z</time>
      </trkpt>
      <trkpt lat="48.51576" lon="7.16977">
        <ele>830</ele>
        <time>2020-10-24T13:54:02.000Z</time>
      </trkpt>
      <trkpt lat="48.51574" lon="7.16976">
        <ele>830</ele>
        <time>2020-10-24T13:54:12.000Z</time>
      </trkpt>
      <trkpt lat="48.51575" lon="7.16976">
        <ele>830</ele>
        <time>2020-10-24T13:54:22.000Z</time>
      </trkpt>
      <trkpt lat="48.51576" lon="7.16977">
        <ele>830</ele>
        <time>2020-10-24T13:54:40.000Z</time>
      </trkpt>
      <trkpt lat="48.51578" lon="7.16977">
        <ele>830</ele>
        <time>2020-10-24T13:54:50.000Z</time>
      </trkpt>
      <trkpt lat="48.51579" lon="7.16979">
        <ele>830</ele>
        <time>2020-10-24T13:55:00.000Z</time>
      </trkpt>
      <trkpt lat="48.51584" lon="7.16986">
        <ele>830</ele>
        <time>2020-10-24T13:55:10.000Z</time>
      </trkpt>
      <trkpt lat="48.51587" lon="7.16994">
        <ele>830</ele>
        <time>2020-10-24T13:55:20.000Z</time>
      </trkpt>
      <trkpt lat="48.51593" lon="7.1701">
        <ele>831</ele>
        <time>2020-10-24T13:55:30.000Z</time>
      </trkpt>
      <trkpt lat="48.51593" lon="7.17022">
        <ele>832</ele>
        <time>2020-10-24T13:55:40.000Z</time>
      </trkpt>
      <trkpt lat="48.51592" lon="7.17025">
        <ele>832</ele>
        <time>2020-10-24T13:55:50.000Z</time>
      </trkpt>
      <trkpt lat="48.51591" lon="7.17026">
        <ele>832</ele>
        <time>2020-10-24T13:56:00.000Z</time>
      </trkpt>
      <trkpt lat="48.51594" lon="7.17031">
        <ele>832</ele>
        <time>2020-10-24T13:56:10.000Z</time>
      </trkpt>
      <trkpt lat="48.51594" lon="7.17034">
        <ele>832</ele>
        <time>2020-10-24T13:56:47.000Z</time>
      </trkpt>
      <trkpt lat="48.51595" lon="7.17036">
        <ele>832</ele>
        <time>2020-10-24T13:56:57.000Z</time>
      </trkpt>
      <trkpt lat="48.51595" lon="7.17039">
        <ele>832</ele>
        <time>2020-10-24T13:57:07.000Z</time>
      </trkpt>
      <trkpt lat="48.51594" lon="7.17053">
        <ele>832</ele>
        <time>2020-10-24T13:57:17.000Z</time>
      </trkpt>
      <trkpt lat="48.51589" lon="7.17074">
        <ele>832</ele>
        <time>2020-10-24T13:57:27.000Z</time>
      </trkpt>
      <trkpt lat="48.51581" lon="7.17093">
        <ele>829</ele>
        <time>2020-10-24T13:57:37.000Z</time>
      </trkpt>
      <trkpt lat="48.51577" lon="7.17113">
        <ele>829</ele>
        <time>2020-10-24T13:57:47.000Z</time>
      </trkpt>
      <trkpt lat="48.51578" lon="7.17136">
        <ele>831</ele>
        <time>2020-10-24T13:57:57.000Z</time>
      </trkpt>
      <trkpt lat="48.51578" lon="7.1715">
        <ele>834</ele>
        <time>2020-10-24T13:58:07.000Z</time>
      </trkpt>
      <trkpt lat="48.51578" lon="7.17169">
        <ele>840</ele>
        <time>2020-10-24T13:58:17.000Z</time>
      </trkpt>
      <trkpt lat="48.51575" lon="7.17189">
        <ele>837</ele>
        <time>2020-10-24T13:58:27.000Z</time>
      </trkpt>
      <trkpt lat="48.51571" lon="7.17207">
        <ele>837</ele>
        <time>2020-10-24T13:58:37.000Z</time>
      </trkpt>
      <trkpt lat="48.51567" lon="7.17221">
        <ele>838</ele>
        <time>2020-10-24T13:58:47.000Z</time>
      </trkpt>
      <trkpt lat="48.51559" lon="7.17238">
        <ele>838</ele>
        <time>2020-10-24T13:58:57.000Z</time>
      </trkpt>
      <trkpt lat="48.51554" lon="7.17247">
        <ele>838</ele>
        <time>2020-10-24T13:59:07.000Z</time>
      </trkpt>
      <trkpt lat="48.51552" lon="7.1725">
        <ele>837</ele>
        <time>2020-10-24T13:59:17.000Z</time>
      </trkpt>
      <trkpt lat="48.51552" lon="7.17251">
        <ele>844</ele>
        <time>2020-10-24T13:59:34.000Z</time>
      </trkpt>
      <trkpt lat="48.51551" lon="7.17253">
        <ele>844</ele>
        <time>2020-10-24T13:59:44.000Z</time>
      </trkpt>
      <trkpt lat="48.51545" lon="7.17263">
        <ele>843</ele>
        <time>2020-10-24T13:59:54.000Z</time>
      </trkpt>
      <trkpt lat="48.51538" lon="7.17276">
        <ele>843</ele>
        <time>2020-10-24T14:00:04.000Z</time>
      </trkpt>
      <trkpt lat="48.5153" lon="7.17287">
        <ele>843</ele>
        <time>2020-10-24T14:00:14.000Z</time>
      </trkpt>
      <trkpt lat="48.51523" lon="7.17296">
        <ele>843</ele>
        <time>2020-10-24T14:00:24.000Z</time>
      </trkpt>
      <trkpt lat="48.5152" lon="7.173">
        <ele>843</ele>
        <time>2020-10-24T14:00:37.000Z</time>
      </trkpt>
      <trkpt lat="48.51522" lon="7.17301">
        <ele>843</ele>
        <time>2020-10-24T14:00:47.000Z</time>
      </trkpt>
      <trkpt lat="48.51529" lon="7.173">
        <ele>844</ele>
        <time>2020-10-24T14:00:57.000Z</time>
      </trkpt>
      <trkpt lat="48.51536" lon="7.17302">
        <ele>845</ele>
        <time>2020-10-24T14:01:07.000Z</time>
      </trkpt>
      <trkpt lat="48.51545" lon="7.17301">
        <ele>846</ele>
        <time>2020-10-24T14:01:17.000Z</time>
      </trkpt>
      <trkpt lat="48.51551" lon="7.173">
        <ele>847</ele>
        <time>2020-10-24T14:01:27.000Z</time>
      </trkpt>
      <trkpt lat="48.51558" lon="7.17298">
        <ele>847</ele>
        <time>2020-10-24T14:01:37.000Z</time>
      </trkpt>
      <trkpt lat="48.51568" lon="7.17294">
        <ele>848</ele>
        <time>2020-10-24T14:01:47.000Z</time>
      </trkpt>
      <trkpt lat="48.51573" lon="7.17293">
        <ele>848</ele>
        <time>2020-10-24T14:01:57.000Z</time>
      </trkpt>
      <trkpt lat="48.51586" lon="7.17291">
        <ele>859</ele>
        <time>2020-10-24T14:02:07.000Z</time>
      </trkpt>
      <trkpt lat="48.51596" lon="7.1728">
        <ele>858</ele>
        <time>2020-10-24T14:02:17.000Z</time>
      </trkpt>
      <trkpt lat="48.51605" lon="7.17273">
        <ele>858</ele>
        <time>2020-10-24T14:02:27.000Z</time>
      </trkpt>
      <trkpt lat="48.51612" lon="7.17269">
        <ele>858</ele>
        <time>2020-10-24T14:02:37.000Z</time>
      </trkpt>
      <trkpt lat="48.51618" lon="7.17263">
        <ele>859</ele>
        <time>2020-10-24T14:02:47.000Z</time>
      </trkpt>
      <trkpt lat="48.51621" lon="7.17261">
        <ele>859</ele>
        <time>2020-10-24T14:02:57.000Z</time>
      </trkpt>
      <trkpt lat="48.51624" lon="7.17261">
        <ele>859</ele>
        <time>2020-10-24T14:03:07.000Z</time>
      </trkpt>
      <trkpt lat="48.51636" lon="7.17264">
        <ele>860</ele>
        <time>2020-10-24T14:03:17.000Z</time>
      </trkpt>
      <trkpt lat="48.51649" lon="7.17265">
        <ele>861</ele>
        <time>2020-10-24T14:03:27.000Z</time>
      </trkpt>
      <trkpt lat="48.51652" lon="7.17266">
        <ele>861</ele>
        <time>2020-10-24T14:03:37.000Z</time>
      </trkpt>
      <trkpt lat="48.51657" lon="7.17272">
        <ele>861</ele>
        <time>2020-10-24T14:03:47.000Z</time>
      </trkpt>
      <trkpt lat="48.51663" lon="7.17278">
        <ele>862</ele>
        <time>2020-10-24T14:03:57.000Z</time>
      </trkpt>
      <trkpt lat="48.51668" lon="7.17282">
        <ele>867</ele>
        <time>2020-10-24T14:04:07.000Z</time>
      </trkpt>
      <trkpt lat="48.51676" lon="7.17286">
        <ele>867</ele>
        <time>2020-10-24T14:04:17.000Z</time>
      </trkpt>
      <trkpt lat="48.51685" lon="7.17296">
        <ele>869</ele>
        <time>2020-10-24T14:04:27.000Z</time>
      </trkpt>
      <trkpt lat="48.51692" lon="7.173">
        <ele>869</ele>
        <time>2020-10-24T14:04:37.000Z</time>
      </trkpt>
      <trkpt lat="48.51697" lon="7.17301">
        <ele>869</ele>
        <time>2020-10-24T14:04:47.000Z</time>
      </trkpt>
      <trkpt lat="48.51705" lon="7.17305">
        <ele>870</ele>
        <time>2020-10-24T14:04:57.000Z</time>
      </trkpt>
      <trkpt lat="48.51717" lon="7.17311">
        <ele>870</ele>
        <time>2020-10-24T14:05:07.000Z</time>
      </trkpt>
      <trkpt lat="48.51729" lon="7.17318">
        <ele>871</ele>
        <time>2020-10-24T14:05:17.000Z</time>
      </trkpt>
      <trkpt lat="48.51734" lon="7.17327">
        <ele>872</ele>
        <time>2020-10-24T14:05:27.000Z</time>
      </trkpt>
      <trkpt lat="48.5174" lon="7.17336">
        <ele>880</ele>
        <time>2020-10-24T14:05:37.000Z</time>
      </trkpt>
      <trkpt lat="48.51755" lon="7.17353">
        <ele>882</ele>
        <time>2020-10-24T14:05:47.000Z</time>
      </trkpt>
      <trkpt lat="48.51767" lon="7.17361">
        <ele>884</ele>
        <time>2020-10-24T14:05:57.000Z</time>
      </trkpt>
      <trkpt lat="48.51772" lon="7.17366">
        <ele>885</ele>
        <time>2020-10-24T14:06:07.000Z</time>
      </trkpt>
      <trkpt lat="48.51775" lon="7.1737">
        <ele>886</ele>
        <time>2020-10-24T14:06:17.000Z</time>
      </trkpt>
      <trkpt lat="48.51779" lon="7.17372">
        <ele>886</ele>
        <time>2020-10-24T14:06:27.000Z</time>
      </trkpt>
      <trkpt lat="48.5178" lon="7.17373">
        <ele>886</ele>
        <time>2020-10-24T14:06:37.000Z</time>
      </trkpt>
      <trkpt lat="48.51782" lon="7.17373">
        <ele>886</ele>
        <time>2020-10-24T14:06:53.000Z</time>
      </trkpt>
      <trkpt lat="48.51787" lon="7.17376">
        <ele>887</ele>
        <time>2020-10-24T14:07:03.000Z</time>
      </trkpt>
      <trkpt lat="48.51792" lon="7.17381">
        <ele>887</ele>
        <time>2020-10-24T14:07:13.000Z</time>
      </trkpt>
      <trkpt lat="48.51793" lon="7.17382">
        <ele>887</ele>
        <time>2020-10-24T14:07:23.000Z</time>
      </trkpt>
      <trkpt lat="48.51794" lon="7.17383">
        <ele>887</ele>
        <time>2020-10-24T14:07:33.000Z</time>
      </trkpt>
      <trkpt lat="48.51807" lon="7.17388">
        <ele>888</ele>
        <time>2020-10-24T14:07:43.000Z</time>
      </trkpt>
      <trkpt lat="48.51814" lon="7.1739">
        <ele>889</ele>
        <time>2020-10-24T14:07:53.000Z</time>
      </trkpt>
      <trkpt lat="48.51824" lon="7.17401">
        <ele>891</ele>
        <time>2020-10-24T14:08:03.000Z</time>
      </trkpt>
      <trkpt lat="48.5183" lon="7.17413">
        <ele>894</ele>
        <time>2020-10-24T14:08:13.000Z</time>
      </trkpt>
      <trkpt lat="48.51838" lon="7.17418">
        <ele>896</ele>
        <time>2020-10-24T14:08:23.000Z</time>
      </trkpt>
      <trkpt lat="48.51848" lon="7.17421">
        <ele>895</ele>
        <time>2020-10-24T14:08:33.000Z</time>
      </trkpt>
      <trkpt lat="48.51851" lon="7.17422">
        <ele>895</ele>
        <time>2020-10-24T14:08:43.000Z</time>
      </trkpt>
      <trkpt lat="48.51852" lon="7.17422">
        <ele>895</ele>
        <time>2020-10-24T14:08:53.000Z</time>
      </trkpt>
      <trkpt lat="48.51852" lon="7.17423">
        <ele>895</ele>
        <time>2020-10-24T14:10:29.000Z</time>
      </trkpt>
      <trkpt lat="48.51846" lon="7.1743">
        <ele>895</ele>
        <time>2020-10-24T14:10:39.000Z</time>
      </trkpt>
      <trkpt lat="48.51843" lon="7.17438">
        <ele>895</ele>
        <time>2020-10-24T14:10:49.000Z</time>
      </trkpt>
      <trkpt lat="48.51839" lon="7.17449">
        <ele>896</ele>
        <time>2020-10-24T14:10:59.000Z</time>
      </trkpt>
      <trkpt lat="48.51835" lon="7.17453">
        <ele>896</ele>
        <time>2020-10-24T14:11:09.000Z</time>
      </trkpt>
      <trkpt lat="48.51829" lon="7.1746">
        <ele>902</ele>
        <time>2020-10-24T14:11:19.000Z</time>
      </trkpt>
      <trkpt lat="48.5183" lon="7.17471">
        <ele>903</ele>
        <time>2020-10-24T14:11:29.000Z</time>
      </trkpt>
      <trkpt lat="48.51827" lon="7.17484">
        <ele>904</ele>
        <time>2020-10-24T14:11:39.000Z</time>
      </trkpt>
      <trkpt lat="48.51822" lon="7.17487">
        <ele>905</ele>
        <time>2020-10-24T14:11:49.000Z</time>
      </trkpt>
      <trkpt lat="48.51816" lon="7.17491">
        <ele>905</ele>
        <time>2020-10-24T14:11:59.000Z</time>
      </trkpt>
      <trkpt lat="48.51809" lon="7.17496">
        <ele>905</ele>
        <time>2020-10-24T14:12:09.000Z</time>
      </trkpt>
      <trkpt lat="48.51805" lon="7.17507">
        <ele>908</ele>
        <time>2020-10-24T14:12:19.000Z</time>
      </trkpt>
      <trkpt lat="48.51805" lon="7.17509">
        <ele>908</ele>
        <time>2020-10-24T14:12:29.000Z</time>
      </trkpt>
      <trkpt lat="48.51804" lon="7.17512">
        <ele>908</ele>
        <time>2020-10-24T14:13:08.000Z</time>
      </trkpt>
      <trkpt lat="48.51801" lon="7.17514">
        <ele>908</ele>
        <time>2020-10-24T14:13:18.000Z</time>
      </trkpt>
      <trkpt lat="48.51796" lon="7.17513">
        <ele>908</ele>
        <time>2020-10-24T14:13:28.000Z</time>
      </trkpt>
      <trkpt lat="48.51787" lon="7.17516">
        <ele>909</ele>
        <time>2020-10-24T14:13:38.000Z</time>
      </trkpt>
      <trkpt lat="48.51782" lon="7.17516">
        <ele>909</ele>
        <time>2020-10-24T14:13:48.000Z</time>
      </trkpt>
      <trkpt lat="48.51772" lon="7.17521">
        <ele>910</ele>
        <time>2020-10-24T14:13:58.000Z</time>
      </trkpt>
      <trkpt lat="48.51767" lon="7.17522">
        <ele>910</ele>
        <time>2020-10-24T14:14:08.000Z</time>
      </trkpt>
      <trkpt lat="48.51765" lon="7.17523">
        <ele>910</ele>
        <time>2020-10-24T14:14:18.000Z</time>
      </trkpt>
      <trkpt lat="48.51756" lon="7.17524">
        <ele>910</ele>
        <time>2020-10-24T14:14:28.000Z</time>
      </trkpt>
      <trkpt lat="48.51747" lon="7.17524">
        <ele>919</ele>
        <time>2020-10-24T14:14:38.000Z</time>
      </trkpt>
      <trkpt lat="48.51737" lon="7.17524">
        <ele>920</ele>
        <time>2020-10-24T14:14:48.000Z</time>
      </trkpt>
      <trkpt lat="48.51728" lon="7.17524">
        <ele>921</ele>
        <time>2020-10-24T14:14:58.000Z</time>
      </trkpt>
      <trkpt lat="48.5172" lon="7.17523">
        <ele>923</ele>
        <time>2020-10-24T14:15:08.000Z</time>
      </trkpt>
      <trkpt lat="48.5171" lon="7.17522">
        <ele>924</ele>
        <time>2020-10-24T14:15:18.000Z</time>
      </trkpt>
      <trkpt lat="48.51708" lon="7.17522">
        <ele>924</ele>
        <time>2020-10-24T14:15:28.000Z</time>
      </trkpt>
      <trkpt lat="48.51705" lon="7.17522">
        <ele>925</ele>
        <time>2020-10-24T14:16:12.000Z</time>
      </trkpt>
      <trkpt lat="48.51698" lon="7.17522">
        <ele>926</ele>
        <time>2020-10-24T14:16:22.000Z</time>
      </trkpt>
      <trkpt lat="48.51693" lon="7.17523">
        <ele>926</ele>
        <time>2020-10-24T14:16:32.000Z</time>
      </trkpt>
      <trkpt lat="48.51687" lon="7.17523">
        <ele>927</ele>
        <time>2020-10-24T14:16:42.000Z</time>
      </trkpt>
      <trkpt lat="48.51686" lon="7.17523">
        <ele>927</ele>
        <time>2020-10-24T14:16:52.000Z</time>
      </trkpt>
      <trkpt lat="48.51682" lon="7.17521">
        <ele>928</ele>
        <time>2020-10-24T14:17:02.000Z</time>
      </trkpt>
      <trkpt lat="48.51681" lon="7.17521">
        <ele>928</ele>
        <time>2020-10-24T14:17:26.000Z</time>
      </trkpt>
      <trkpt lat="48.51669" lon="7.1752">
        <ele>929</ele>
        <time>2020-10-24T14:17:36.000Z</time>
      </trkpt>
      <trkpt lat="48.51659" lon="7.17517">
        <ele>932</ele>
        <time>2020-10-24T14:17:46.000Z</time>
      </trkpt>
      <trkpt lat="48.51655" lon="7.17523">
        <ele>932</ele>
        <time>2020-10-24T14:17:56.000Z</time>
      </trkpt>
      <trkpt lat="48.5165" lon="7.17526">
        <ele>932</ele>
        <time>2020-10-24T14:18:06.000Z</time>
      </trkpt>
      <trkpt lat="48.51643" lon="7.17531">
        <ele>931</ele>
        <time>2020-10-24T14:18:16.000Z</time>
      </trkpt>
      <trkpt lat="48.51636" lon="7.17533">
        <ele>931</ele>
        <time>2020-10-24T14:18:26.000Z</time>
      </trkpt>
      <trkpt lat="48.51629" lon="7.17536">
        <ele>931</ele>
        <time>2020-10-24T14:18:36.000Z</time>
      </trkpt>
      <trkpt lat="48.51623" lon="7.17541">
        <ele>931</ele>
        <time>2020-10-24T14:18:46.000Z</time>
      </trkpt>
      <trkpt lat="48.5162" lon="7.17546">
        <ele>931</ele>
        <time>2020-10-24T14:18:56.000Z</time>
      </trkpt>
      <trkpt lat="48.51612" lon="7.17553">
        <ele>931</ele>
        <time>2020-10-24T14:19:06.000Z</time>
      </trkpt>
      <trkpt lat="48.5161" lon="7.17557">
        <ele>931</ele>
        <time>2020-10-24T14:19:16.000Z</time>
      </trkpt>
      <trkpt lat="48.51606" lon="7.17561">
        <ele>932</ele>
        <time>2020-10-24T14:19:26.000Z</time>
      </trkpt>
      <trkpt lat="48.51605" lon="7.17562">
        <ele>932</ele>
        <time>2020-10-24T14:19:36.000Z</time>
      </trkpt>
      <trkpt lat="48.51604" lon="7.17564">
        <ele>932</ele>
        <time>2020-10-24T14:20:41.000Z</time>
      </trkpt>
      <trkpt lat="48.51605" lon="7.17578">
        <ele>932</ele>
        <time>2020-10-24T14:20:51.000Z</time>
      </trkpt>
      <trkpt lat="48.51606" lon="7.17585">
        <ele>928</ele>
        <time>2020-10-24T14:21:01.000Z</time>
      </trkpt>
      <trkpt lat="48.5161" lon="7.17591">
        <ele>927</ele>
        <time>2020-10-24T14:21:35.000Z</time>
      </trkpt>
      <trkpt lat="48.51612" lon="7.17594">
        <ele>927</ele>
        <time>2020-10-24T14:21:45.000Z</time>
      </trkpt>
      <trkpt lat="48.51614" lon="7.17595">
        <ele>927</ele>
        <time>2020-10-24T14:21:55.000Z</time>
      </trkpt>
      <trkpt lat="48.51614" lon="7.1759">
        <ele>927</ele>
        <time>2020-10-24T14:22:05.000Z</time>
      </trkpt>
      <trkpt lat="48.51614" lon="7.17588">
        <ele>927</ele>
        <time>2020-10-24T14:22:15.000Z</time>
      </trkpt>
      <trkpt lat="48.51615" lon="7.17587">
        <ele>927</ele>
        <time>2020-10-24T14:23:54.000Z</time>
      </trkpt>
      <trkpt lat="48.51624" lon="7.17595">
        <ele>927</ele>
        <time>2020-10-24T14:24:04.000Z</time>
      </trkpt>
      <trkpt lat="48.51624" lon="7.17597">
        <ele>926</ele>
        <time>2020-10-24T14:24:15.000Z</time>
      </trkpt>
      <trkpt lat="48.51619" lon="7.17598">
        <ele>926</ele>
        <time>2020-10-24T14:24:25.000Z</time>
      </trkpt>
      <trkpt lat="48.51621" lon="7.17598">
        <ele>926</ele>
        <time>2020-10-24T14:26:01.000Z</time>
      </trkpt>
      <trkpt lat="48.51621" lon="7.17592">
        <ele>927</ele>
        <time>2020-10-24T14:28:22.000Z</time>
      </trkpt>
      <trkpt lat="48.51637" lon="7.17571">
        <ele>933</ele>
        <time>2020-10-24T14:28:32.000Z</time>
      </trkpt>
      <trkpt lat="48.51634" lon="7.17569">
        <ele>933</ele>
        <time>2020-10-24T14:29:17.000Z</time>
      </trkpt>
      <trkpt lat="48.5163" lon="7.17572">
        <ele>933</ele>
        <time>2020-10-24T14:29:27.000Z</time>
      </trkpt>
      <trkpt lat="48.51627" lon="7.17576">
        <ele>933</ele>
        <time>2020-10-24T14:30:03.000Z</time>
      </trkpt>
      <trkpt lat="48.51625" lon="7.17582">
        <ele>933</ele>
        <time>2020-10-24T14:30:13.000Z</time>
      </trkpt>
      <trkpt lat="48.51621" lon="7.17585">
        <ele>927</ele>
        <time>2020-10-24T14:30:27.000Z</time>
      </trkpt>
      <trkpt lat="48.51605" lon="7.17591">
        <ele>928</ele>
        <time>2020-10-24T14:30:37.000Z</time>
      </trkpt>
      <trkpt lat="48.51606" lon="7.1759">
        <ele>928</ele>
        <time>2020-10-24T14:31:02.000Z</time>
      </trkpt>
      <trkpt lat="48.51613" lon="7.17593">
        <ele>927</ele>
        <time>2020-10-24T14:31:12.000Z</time>
      </trkpt>
      <trkpt lat="48.51614" lon="7.17592">
        <ele>927</ele>
        <time>2020-10-24T14:32:05.000Z</time>
      </trkpt>
      <trkpt lat="48.51621" lon="7.17587">
        <ele>927</ele>
        <time>2020-10-24T14:32:15.000Z</time>
      </trkpt>
      <trkpt lat="48.51622" lon="7.1759">
        <ele>927</ele>
        <time>2020-10-24T14:32:25.000Z</time>
      </trkpt>
      <trkpt lat="48.51624" lon="7.1759">
        <ele>927</ele>
        <time>2020-10-24T14:32:57.000Z</time>
      </trkpt>
      <trkpt lat="48.51623" lon="7.1759">
        <ele>927</ele>
        <time>2020-10-24T14:33:07.000Z</time>
      </trkpt>
      <trkpt lat="48.51622" lon="7.17592">
        <ele>927</ele>
        <time>2020-10-24T14:33:17.000Z</time>
      </trkpt>
      <trkpt lat="48.51623" lon="7.17591">
        <ele>927</ele>
        <time>2020-10-24T14:33:29.000Z</time>
      </trkpt>
      <trkpt lat="48.51622" lon="7.17592">
        <ele>927</ele>
        <time>2020-10-24T14:33:39.000Z</time>
      </trkpt>
      <trkpt lat="48.5162" lon="7.17598">
        <ele>926</ele>
        <time>2020-10-24T14:33:49.000Z</time>
      </trkpt>
      <trkpt lat="48.51619" lon="7.176">
        <ele>926</ele>
        <time>2020-10-24T14:33:59.000Z</time>
      </trkpt>
      <trkpt lat="48.51617" lon="7.17601">
        <ele>926</ele>
        <time>2020-10-24T14:34:09.000Z</time>
      </trkpt>
      <trkpt lat="48.51616" lon="7.17601">
        <ele>926</ele>
        <time>2020-10-24T14:34:19.000Z</time>
      </trkpt>
      <trkpt lat="48.51612" lon="7.17597">
        <ele>927</ele>
        <time>2020-10-24T14:34:29.000Z</time>
      </trkpt>
      <trkpt lat="48.51619" lon="7.17594">
        <ele>927</ele>
        <time>2020-10-24T14:34:39.000Z</time>
      </trkpt>
      <trkpt lat="48.51621" lon="7.17595">
        <ele>927</ele>
        <time>2020-10-24T14:35:32.000Z</time>
      </trkpt>
      <trkpt lat="48.51625" lon="7.17593">
        <ele>927</ele>
        <time>2020-10-24T14:35:42.000Z</time>
      </trkpt>
      <trkpt lat="48.51626" lon="7.17594">
        <ele>927</ele>
        <time>2020-10-24T14:35:52.000Z</time>
      </trkpt>
      <trkpt lat="48.51627" lon="7.17588">
        <ele>927</ele>
        <time>2020-10-24T14:36:02.000Z</time>
      </trkpt>
      <trkpt lat="48.51626" lon="7.17587">
        <ele>927</ele>
        <time>2020-10-24T14:36:35.000Z</time>
      </trkpt>
      <trkpt lat="48.51624" lon="7.17585">
        <ele>927</ele>
        <time>2020-10-24T14:36:45.000Z</time>
      </trkpt>
      <trkpt lat="48.51619" lon="7.17582">
        <ele>933</ele>
        <time>2020-10-24T14:36:55.000Z</time>
      </trkpt>
      <trkpt lat="48.51613" lon="7.17582">
        <ele>932</ele>
        <time>2020-10-24T14:37:05.000Z</time>
      </trkpt>
      <trkpt lat="48.5161" lon="7.17579">
        <ele>932</ele>
        <time>2020-10-24T14:37:15.000Z</time>
      </trkpt>
      <trkpt lat="48.51609" lon="7.17577">
        <ele>932</ele>
        <time>2020-10-24T14:37:25.000Z</time>
      </trkpt>
      <trkpt lat="48.51606" lon="7.17569">
        <ele>932</ele>
        <time>2020-10-24T14:37:35.000Z</time>
      </trkpt>
      <trkpt lat="48.51605" lon="7.17566">
        <ele>932</ele>
        <time>2020-10-24T14:37:45.000Z</time>
      </trkpt>
      <trkpt lat="48.51598" lon="7.17566">
        <ele>932</ele>
        <time>2020-10-24T14:37:55.000Z</time>
      </trkpt>
      <trkpt lat="48.51597" lon="7.17567">
        <ele>932</ele>
        <time>2020-10-24T14:38:08.000Z</time>
      </trkpt>
      <trkpt lat="48.51596" lon="7.17569">
        <ele>932</ele>
        <time>2020-10-24T14:38:18.000Z</time>
      </trkpt>
      <trkpt lat="48.51598" lon="7.17567">
        <ele>932</ele>
        <time>2020-10-24T14:39:50.000Z</time>
      </trkpt>
      <trkpt lat="48.51604" lon="7.17562">
        <ele>932</ele>
        <time>2020-10-24T14:40:00.000Z</time>
      </trkpt>
      <trkpt lat="48.51603" lon="7.17563">
        <ele>932</ele>
        <time>2020-10-24T14:40:18.000Z</time>
      </trkpt>
      <trkpt lat="48.51605" lon="7.17564">
        <ele>932</ele>
        <time>2020-10-24T14:40:28.000Z</time>
      </trkpt>
      <trkpt lat="48.51613" lon="7.17558">
        <ele>931</ele>
        <time>2020-10-24T14:40:38.000Z</time>
      </trkpt>
      <trkpt lat="48.51618" lon="7.17554">
        <ele>931</ele>
        <time>2020-10-24T14:40:48.000Z</time>
      </trkpt>
      <trkpt lat="48.51623" lon="7.17551">
        <ele>931</ele>
        <time>2020-10-24T14:41:00.000Z</time>
      </trkpt>
      <trkpt lat="48.51629" lon="7.17551">
        <ele>932</ele>
        <time>2020-10-24T14:41:10.000Z</time>
      </trkpt>
      <trkpt lat="48.51632" lon="7.1755">
        <ele>932</ele>
        <time>2020-10-24T14:41:20.000Z</time>
      </trkpt>
      <trkpt lat="48.51641" lon="7.17541">
        <ele>932</ele>
        <time>2020-10-24T14:41:30.000Z</time>
      </trkpt>
      <trkpt lat="48.51649" lon="7.17538">
        <ele>932</ele>
        <time>2020-10-24T14:41:40.000Z</time>
      </trkpt>
      <trkpt lat="48.51653" lon="7.17535">
        <ele>932</ele>
        <time>2020-10-24T14:41:50.000Z</time>
      </trkpt>
      <trkpt lat="48.51655" lon="7.17533">
        <ele>932</ele>
        <time>2020-10-24T14:42:00.000Z</time>
      </trkpt>
      <trkpt lat="48.51659" lon="7.17531">
        <ele>932</ele>
        <time>2020-10-24T14:42:10.000Z</time>
      </trkpt>
      <trkpt lat="48.51664" lon="7.17527">
        <ele>932</ele>
        <time>2020-10-24T14:42:20.000Z</time>
      </trkpt>
      <trkpt lat="48.51667" lon="7.17526">
        <ele>932</ele>
        <time>2020-10-24T14:42:30.000Z</time>
      </trkpt>
      <trkpt lat="48.51672" lon="7.17522">
        <ele>929</ele>
        <time>2020-10-24T14:42:40.000Z</time>
      </trkpt>
      <trkpt lat="48.51686" lon="7.17522">
        <ele>927</ele>
        <time>2020-10-24T14:42:50.000Z</time>
      </trkpt>
      <trkpt lat="48.5169" lon="7.17523">
        <ele>927</ele>
        <time>2020-10-24T14:43:00.000Z</time>
      </trkpt>
      <trkpt lat="48.51693" lon="7.17523">
        <ele>926</ele>
        <time>2020-10-24T14:43:10.000Z</time>
      </trkpt>
      <trkpt lat="48.51703" lon="7.17524">
        <ele>925</ele>
        <time>2020-10-24T14:43:20.000Z</time>
      </trkpt>
      <trkpt lat="48.51714" lon="7.17527">
        <ele>924</ele>
        <time>2020-10-24T14:43:30.000Z</time>
      </trkpt>
      <trkpt lat="48.51723" lon="7.17528">
        <ele>922</ele>
        <time>2020-10-24T14:43:40.000Z</time>
      </trkpt>
      <trkpt lat="48.51734" lon="7.17527">
        <ele>921</ele>
        <time>2020-10-24T14:43:50.000Z</time>
      </trkpt>
      <trkpt lat="48.51753" lon="7.17526">
        <ele>910</ele>
        <time>2020-10-24T14:44:00.000Z</time>
      </trkpt>
      <trkpt lat="48.51763" lon="7.17526">
        <ele>910</ele>
        <time>2020-10-24T14:44:10.000Z</time>
      </trkpt>
      <trkpt lat="48.5177" lon="7.17526">
        <ele>910</ele>
        <time>2020-10-24T14:44:20.000Z</time>
      </trkpt>
      <trkpt lat="48.51772" lon="7.17525">
        <ele>910</ele>
        <time>2020-10-24T14:44:30.000Z</time>
      </trkpt>
      <trkpt lat="48.51774" lon="7.17524">
        <ele>909</ele>
        <time>2020-10-24T14:44:40.000Z</time>
      </trkpt>
      <trkpt lat="48.51778" lon="7.17523">
        <ele>909</ele>
        <time>2020-10-24T14:44:50.000Z</time>
      </trkpt>
      <trkpt lat="48.51784" lon="7.17523">
        <ele>909</ele>
        <time>2020-10-24T14:45:00.000Z</time>
      </trkpt>
      <trkpt lat="48.51788" lon="7.17521">
        <ele>909</ele>
        <time>2020-10-24T14:45:10.000Z</time>
      </trkpt>
      <trkpt lat="48.51796" lon="7.17518">
        <ele>908</ele>
        <time>2020-10-24T14:45:20.000Z</time>
      </trkpt>
      <trkpt lat="48.518" lon="7.17512">
        <ele>908</ele>
        <time>2020-10-24T14:45:30.000Z</time>
      </trkpt>
      <trkpt lat="48.51807" lon="7.175">
        <ele>908</ele>
        <time>2020-10-24T14:45:40.000Z</time>
      </trkpt>
      <trkpt lat="48.5181" lon="7.17498">
        <ele>905</ele>
        <time>2020-10-24T14:45:50.000Z</time>
      </trkpt>
      <trkpt lat="48.51819" lon="7.17495">
        <ele>905</ele>
        <time>2020-10-24T14:46:00.000Z</time>
      </trkpt>
      <trkpt lat="48.51829" lon="7.17484">
        <ele>904</ele>
        <time>2020-10-24T14:46:10.000Z</time>
      </trkpt>
      <trkpt lat="48.51838" lon="7.1747">
        <ele>897</ele>
        <time>2020-10-24T14:46:20.000Z</time>
      </trkpt>
      <trkpt lat="48.51842" lon="7.17459">
        <ele>896</ele>
        <time>2020-10-24T14:46:30.000Z</time>
      </trkpt>
      <trkpt lat="48.51849" lon="7.17451">
        <ele>895</ele>
        <time>2020-10-24T14:46:40.000Z</time>
      </trkpt>
      <trkpt lat="48.51856" lon="7.17445">
        <ele>895</ele>
        <time>2020-10-24T14:46:50.000Z</time>
      </trkpt>
      <trkpt lat="48.51859" lon="7.17432">
        <ele>895</ele>
        <time>2020-10-24T14:47:00.000Z</time>
      </trkpt>
      <trkpt lat="48.51863" lon="7.17425">
        <ele>894</ele>
        <time>2020-10-24T14:47:10.000Z</time>
      </trkpt>
      <trkpt lat="48.51858" lon="7.1742">
        <ele>895</ele>
        <time>2020-10-24T14:47:20.000Z</time>
      </trkpt>
      <trkpt lat="48.51849" lon="7.17413">
        <ele>892</ele>
        <time>2020-10-24T14:47:30.000Z</time>
      </trkpt>
      <trkpt lat="48.51847" lon="7.17409">
        <ele>892</ele>
        <time>2020-10-24T14:47:40.000Z</time>
      </trkpt>
      <trkpt lat="48.51831" lon="7.17398">
        <ele>891</ele>
        <time>2020-10-24T14:47:50.000Z</time>
      </trkpt>
      <trkpt lat="48.51815" lon="7.1739">
        <ele>889</ele>
        <time>2020-10-24T14:48:00.000Z</time>
      </trkpt>
      <trkpt lat="48.51808" lon="7.17385">
        <ele>888</ele>
        <time>2020-10-24T14:48:10.000Z</time>
      </trkpt>
      <trkpt lat="48.51797" lon="7.17377">
        <ele>887</ele>
        <time>2020-10-24T14:48:20.000Z</time>
      </trkpt>
      <trkpt lat="48.51787" lon="7.17372">
        <ele>886</ele>
        <time>2020-10-24T14:48:30.000Z</time>
      </trkpt>
      <trkpt lat="48.5178" lon="7.17365">
        <ele>885</ele>
        <time>2020-10-24T14:48:40.000Z</time>
      </trkpt>
      <trkpt lat="48.51773" lon="7.17357">
        <ele>884</ele>
        <time>2020-10-24T14:48:50.000Z</time>
      </trkpt>
      <trkpt lat="48.51764" lon="7.17346">
        <ele>882</ele>
        <time>2020-10-24T14:49:00.000Z</time>
      </trkpt>
      <trkpt lat="48.51761" lon="7.17342">
        <ele>881</ele>
        <time>2020-10-24T14:49:10.000Z</time>
      </trkpt>
      <trkpt lat="48.51758" lon="7.17337">
        <ele>879</ele>
        <time>2020-10-24T14:49:20.000Z</time>
      </trkpt>
      <trkpt lat="48.51746" lon="7.17324">
        <ele>873</ele>
        <time>2020-10-24T14:49:30.000Z</time>
      </trkpt>
      <trkpt lat="48.5174" lon="7.17319">
        <ele>872</ele>
        <time>2020-10-24T14:49:40.000Z</time>
      </trkpt>
      <trkpt lat="48.51735" lon="7.17314">
        <ele>871</ele>
        <time>2020-10-24T14:49:50.000Z</time>
      </trkpt>
      <trkpt lat="48.51731" lon="7.17309">
        <ele>870</ele>
        <time>2020-10-24T14:50:00.000Z</time>
      </trkpt>
      <trkpt lat="48.51725" lon="7.17304">
        <ele>869</ele>
        <time>2020-10-24T14:50:10.000Z</time>
      </trkpt>
      <trkpt lat="48.51715" lon="7.17297">
        <ele>868</ele>
        <time>2020-10-24T14:50:20.000Z</time>
      </trkpt>
      <trkpt lat="48.51707" lon="7.17292">
        <ele>868</ele>
        <time>2020-10-24T14:50:30.000Z</time>
      </trkpt>
      <trkpt lat="48.51694" lon="7.17284">
        <ele>867</ele>
        <time>2020-10-24T14:50:40.000Z</time>
      </trkpt>
      <trkpt lat="48.51688" lon="7.17281">
        <ele>867</ele>
        <time>2020-10-24T14:50:50.000Z</time>
      </trkpt>
      <trkpt lat="48.51676" lon="7.17273">
        <ele>865</ele>
        <time>2020-10-24T14:51:00.000Z</time>
      </trkpt>
      <trkpt lat="48.51663" lon="7.17261">
        <ele>860</ele>
        <time>2020-10-24T14:51:10.000Z</time>
      </trkpt>
      <trkpt lat="48.51657" lon="7.17254">
        <ele>860</ele>
        <time>2020-10-24T14:51:20.001Z</time>
      </trkpt>
      <trkpt lat="48.51649" lon="7.1725">
        <ele>860</ele>
        <time>2020-10-24T14:51:30.000Z</time>
      </trkpt>
      <trkpt lat="48.5164" lon="7.17249">
        <ele>853</ele>
        <time>2020-10-24T14:51:40.000Z</time>
      </trkpt>
      <trkpt lat="48.51636" lon="7.17249">
        <ele>852</ele>
        <time>2020-10-24T14:51:50.000Z</time>
      </trkpt>
      <trkpt lat="48.51621" lon="7.17251">
        <ele>858</ele>
        <time>2020-10-24T14:52:00.000Z</time>
      </trkpt>
      <trkpt lat="48.51604" lon="7.17257">
        <ele>856</ele>
        <time>2020-10-24T14:52:10.000Z</time>
      </trkpt>
      <trkpt lat="48.5159" lon="7.17269">
        <ele>855</ele>
        <time>2020-10-24T14:52:20.000Z</time>
      </trkpt>
      <trkpt lat="48.51581" lon="7.17274">
        <ele>847</ele>
        <time>2020-10-24T14:52:30.000Z</time>
      </trkpt>
      <trkpt lat="48.51572" lon="7.17277">
        <ele>847</ele>
        <time>2020-10-24T14:52:40.000Z</time>
      </trkpt>
      <trkpt lat="48.51564" lon="7.17271">
        <ele>846</ele>
        <time>2020-10-24T14:52:50.000Z</time>
      </trkpt>
      <trkpt lat="48.51559" lon="7.1726">
        <ele>845</ele>
        <time>2020-10-24T14:53:00.000Z</time>
      </trkpt>
      <trkpt lat="48.5156" lon="7.17252">
        <ele>845</ele>
        <time>2020-10-24T14:53:10.000Z</time>
      </trkpt>
      <trkpt lat="48.51563" lon="7.17236">
        <ele>839</ele>
        <time>2020-10-24T14:53:20.000Z</time>
      </trkpt>
      <trkpt lat="48.51568" lon="7.17226">
        <ele>838</ele>
        <time>2020-10-24T14:53:30.000Z</time>
      </trkpt>
      <trkpt lat="48.51569" lon="7.17209">
        <ele>837</ele>
        <time>2020-10-24T14:53:40.000Z</time>
      </trkpt>
      <trkpt lat="48.51574" lon="7.17199">
        <ele>837</ele>
        <time>2020-10-24T14:53:50.000Z</time>
      </trkpt>
      <trkpt lat="48.51572" lon="7.17179">
        <ele>838</ele>
        <time>2020-10-24T14:54:00.000Z</time>
      </trkpt>
      <trkpt lat="48.5158" lon="7.17156">
        <ele>836</ele>
        <time>2020-10-24T14:54:10.000Z</time>
      </trkpt>
      <trkpt lat="48.51583" lon="7.17136">
        <ele>831</ele>
        <time>2020-10-24T14:54:20.000Z</time>
      </trkpt>
      <trkpt lat="48.51588" lon="7.17118">
        <ele>838</ele>
        <time>2020-10-24T14:54:30.000Z</time>
      </trkpt>
      <trkpt lat="48.51598" lon="7.171">
        <ele>836</ele>
        <time>2020-10-24T14:54:40.000Z</time>
      </trkpt>
      <trkpt lat="48.51602" lon="7.17086">
        <ele>836</ele>
        <time>2020-10-24T14:54:50.000Z</time>
      </trkpt>
      <trkpt lat="48.51599" lon="7.17065">
        <ele>832</ele>
        <time>2020-10-24T14:55:00.000Z</time>
      </trkpt>
      <trkpt lat="48.51599" lon="7.17047">
        <ele>832</ele>
        <time>2020-10-24T14:55:10.000Z</time>
      </trkpt>
      <trkpt lat="48.51593" lon="7.17031">
        <ele>832</ele>
        <time>2020-10-24T14:55:20.000Z</time>
      </trkpt>
      <trkpt lat="48.51587" lon="7.17017">
        <ele>831</ele>
        <time>2020-10-24T14:55:30.000Z</time>
      </trkpt>
      <trkpt lat="48.51592" lon="7.17005">
        <ele>831</ele>
        <time>2020-10-24T14:55:40.000Z</time>
      </trkpt>
      <trkpt lat="48.516" lon="7.16994">
        <ele>830</ele>
        <time>2020-10-24T14:55:50.000Z</time>
      </trkpt>
      <trkpt lat="48.51603" lon="7.16988">
        <ele>831</ele>
        <time>2020-10-24T14:56:00.000Z</time>
      </trkpt>
      <trkpt lat="48.51601" lon="7.16985">
        <ele>831</ele>
        <time>2020-10-24T14:56:11.000Z</time>
      </trkpt>
      <trkpt lat="48.51598" lon="7.16984">
        <ele>831</ele>
        <time>2020-10-24T14:56:21.000Z</time>
      </trkpt>
      <trkpt lat="48.51586" lon="7.16982">
        <ele>831</ele>
        <time>2020-10-24T14:57:24.000Z</time>
      </trkpt>
      <trkpt lat="48.51584" lon="7.16986">
        <ele>830</ele>
        <time>2020-10-24T14:58:01.000Z</time>
      </trkpt>
      <trkpt lat="48.51579" lon="7.16987">
        <ele>830</ele>
        <time>2020-10-24T14:58:11.000Z</time>
      </trkpt>
      <trkpt lat="48.51576" lon="7.16985">
        <ele>830</ele>
        <time>2020-10-24T14:58:21.000Z</time>
      </trkpt>
      <trkpt lat="48.51571" lon="7.16986">
        <ele>830</ele>
        <time>2020-10-24T14:59:27.000Z</time>
      </trkpt>
      <trkpt lat="48.51574" lon="7.16986">
        <ele>830</ele>
        <time>2020-10-24T14:59:59.000Z</time>
      </trkpt>
      <trkpt lat="48.51573" lon="7.16985">
        <ele>830</ele>
        <time>2020-10-24T15:00:09.000Z</time>
      </trkpt>
      <trkpt lat="48.51575" lon="7.16985">
        <ele>830</ele>
        <time>2020-10-24T15:00:19.000Z</time>
      </trkpt>
      <trkpt lat="48.51589" lon="7.16961">
        <ele>831</ele>
        <time>2020-10-24T15:02:23.000Z</time>
      </trkpt>
      <trkpt lat="48.51551" lon="7.16972">
        <ele>830</ele>
        <time>2020-10-24T15:02:33.000Z</time>
      </trkpt>
      <trkpt lat="48.51566" lon="7.16971">
        <ele>830</ele>
        <time>2020-10-24T15:03:02.000Z</time>
      </trkpt>
      <trkpt lat="48.51569" lon="7.16972">
        <ele>830</ele>
        <time>2020-10-24T15:03:12.000Z</time>
      </trkpt>
      <trkpt lat="48.51572" lon="7.16986">
        <ele>830</ele>
        <time>2020-10-24T15:03:22.000Z</time>
      </trkpt>
      <trkpt lat="48.51572" lon="7.1699">
        <ele>830</ele>
        <time>2020-10-24T15:04:25.000Z</time>
      </trkpt>
      <trkpt lat="48.51573" lon="7.16992">
        <ele>830</ele>
        <time>2020-10-24T15:04:48.000Z</time>
      </trkpt>
      <trkpt lat="48.51573" lon="7.1699">
        <ele>830</ele>
        <time>2020-10-24T15:04:58.000Z</time>
      </trkpt>
      <trkpt lat="48.51574" lon="7.16985">
        <ele>830</ele>
        <time>2020-10-24T15:05:30.000Z</time>
      </trkpt>
      <trkpt lat="48.51574" lon="7.1698">
        <ele>830</ele>
        <time>2020-10-24T15:05:40.000Z</time>
      </trkpt>
      <trkpt lat="48.51573" lon="7.16976">
        <ele>830</ele>
        <time>2020-10-24T15:06:05.000Z</time>
      </trkpt>
      <trkpt lat="48.51573" lon="7.16977">
        <ele>830</ele>
        <time>2020-10-24T15:06:15.000Z</time>
      </trkpt>
      <trkpt lat="48.51573" lon="7.16979">
        <ele>830</ele>
        <time>2020-10-24T15:07:35.000Z</time>
      </trkpt>
      <trkpt lat="48.51574" lon="7.16979">
        <ele>830</ele>
        <time>2020-10-24T15:09:06.000Z</time>
      </trkpt>
      <trkpt lat="48.51581" lon="7.16975">
        <ele>830</ele>
        <time>2020-10-24T15:09:16.000Z</time>
      </trkpt>
      <trkpt lat="48.5159" lon="7.16974">
        <ele>831</ele>
        <time>2020-10-24T15:09:26.000Z</time>
      </trkpt>
      <trkpt lat="48.51594" lon="7.16974">
        <ele>831</ele>
        <time>2020-10-24T15:10:01.000Z</time>
      </trkpt>
      <trkpt lat="48.51595" lon="7.16968">
        <ele>831</ele>
        <time>2020-10-24T15:10:11.000Z</time>
      </trkpt>
      <trkpt lat="48.51591" lon="7.16957">
        <ele>831</ele>
        <time>2020-10-24T15:10:21.000Z</time>
      </trkpt>
      <trkpt lat="48.51586" lon="7.16947">
        <ele>832</ele>
        <time>2020-10-24T15:10:31.000Z</time>
      </trkpt>
      <trkpt lat="48.51581" lon="7.16944">
        <ele>832</ele>
        <time>2020-10-24T15:10:41.000Z</time>
      </trkpt>
      <trkpt lat="48.51564" lon="7.16939">
        <ele>832</ele>
        <time>2020-10-24T15:10:51.000Z</time>
      </trkpt>
      <trkpt lat="48.51542" lon="7.16933">
        <ele>832</ele>
        <time>2020-10-24T15:11:01.000Z</time>
      </trkpt>
      <trkpt lat="48.51531" lon="7.1693">
        <ele>832</ele>
        <time>2020-10-24T15:11:11.000Z</time>
      </trkpt>
      <trkpt lat="48.51522" lon="7.16925">
        <ele>833</ele>
        <time>2020-10-24T15:11:21.000Z</time>
      </trkpt>
      <trkpt lat="48.51511" lon="7.16916">
        <ele>839</ele>
        <time>2020-10-24T15:11:31.000Z</time>
      </trkpt>
      <trkpt lat="48.515" lon="7.16908">
        <ele>839</ele>
        <time>2020-10-24T15:11:41.000Z</time>
      </trkpt>
      <trkpt lat="48.51489" lon="7.16901">
        <ele>844</ele>
        <time>2020-10-24T15:11:51.000Z</time>
      </trkpt>
      <trkpt lat="48.51469" lon="7.16898">
        <ele>846</ele>
        <time>2020-10-24T15:12:01.000Z</time>
      </trkpt>
      <trkpt lat="48.51455" lon="7.16898">
        <ele>847</ele>
        <time>2020-10-24T15:12:11.000Z</time>
      </trkpt>
      <trkpt lat="48.51444" lon="7.16901">
        <ele>846</ele>
        <time>2020-10-24T15:12:21.000Z</time>
      </trkpt>
      <trkpt lat="48.51437" lon="7.16904">
        <ele>845</ele>
        <time>2020-10-24T15:12:31.000Z</time>
      </trkpt>
      <trkpt lat="48.51414" lon="7.16906">
        <ele>845</ele>
        <time>2020-10-24T15:12:41.000Z</time>
      </trkpt>
      <trkpt lat="48.51396" lon="7.16913">
        <ele>850</ele>
        <time>2020-10-24T15:12:51.000Z</time>
      </trkpt>
      <trkpt lat="48.51382" lon="7.16921">
        <ele>838</ele>
        <time>2020-10-24T15:13:01.000Z</time>
      </trkpt>
      <trkpt lat="48.51373" lon="7.16926">
        <ele>839</ele>
        <time>2020-10-24T15:13:11.000Z</time>
      </trkpt>
      <trkpt lat="48.5136" lon="7.1694">
        <ele>839</ele>
        <time>2020-10-24T15:13:21.000Z</time>
      </trkpt>
      <trkpt lat="48.51348" lon="7.1695">
        <ele>839</ele>
        <time>2020-10-24T15:13:31.000Z</time>
      </trkpt>
      <trkpt lat="48.51331" lon="7.16963">
        <ele>848</ele>
        <time>2020-10-24T15:13:41.000Z</time>
      </trkpt>
      <trkpt lat="48.51316" lon="7.16974">
        <ele>846</ele>
        <time>2020-10-24T15:13:51.000Z</time>
      </trkpt>
      <trkpt lat="48.51307" lon="7.16986">
        <ele>846</ele>
        <time>2020-10-24T15:14:01.000Z</time>
      </trkpt>
      <trkpt lat="48.51308" lon="7.1698">
        <ele>846</ele>
        <time>2020-10-24T15:14:30.000Z</time>
      </trkpt>
      <trkpt lat="48.51307" lon="7.16981">
        <ele>846</ele>
        <time>2020-10-24T15:14:53.000Z</time>
      </trkpt>
      <trkpt lat="48.51303" lon="7.16996">
        <ele>845</ele>
        <time>2020-10-24T15:15:03.000Z</time>
      </trkpt>
      <trkpt lat="48.51295" lon="7.17003">
        <ele>832</ele>
        <time>2020-10-24T15:15:13.000Z</time>
      </trkpt>
      <trkpt lat="48.51292" lon="7.17005">
        <ele>833</ele>
        <time>2020-10-24T15:15:23.000Z</time>
      </trkpt>
      <trkpt lat="48.51282" lon="7.17012">
        <ele>834</ele>
        <time>2020-10-24T15:15:33.000Z</time>
      </trkpt>
      <trkpt lat="48.51272" lon="7.17019">
        <ele>835</ele>
        <time>2020-10-24T15:15:43.000Z</time>
      </trkpt>
      <trkpt lat="48.51256" lon="7.17031">
        <ele>834</ele>
        <time>2020-10-24T15:15:53.000Z</time>
      </trkpt>
      <trkpt lat="48.51239" lon="7.17038">
        <ele>835</ele>
        <time>2020-10-24T15:16:03.000Z</time>
      </trkpt>
      <trkpt lat="48.51222" lon="7.1704">
        <ele>834</ele>
        <time>2020-10-24T15:16:13.000Z</time>
      </trkpt>
      <trkpt lat="48.51211" lon="7.17041">
        <ele>833</ele>
        <time>2020-10-24T15:16:23.000Z</time>
      </trkpt>
      <trkpt lat="48.51198" lon="7.17037">
        <ele>833</ele>
        <time>2020-10-24T15:16:33.000Z</time>
      </trkpt>
      <trkpt lat="48.51183" lon="7.17032">
        <ele>834</ele>
        <time>2020-10-24T15:16:43.000Z</time>
      </trkpt>
      <trkpt lat="48.51169" lon="7.1703">
        <ele>834</ele>
        <time>2020-10-24T15:16:53.000Z</time>
      </trkpt>
      <trkpt lat="48.51158" lon="7.17028">
        <ele>828</ele>
        <time>2020-10-24T15:17:03.000Z</time>
      </trkpt>
      <trkpt lat="48.51143" lon="7.17025">
        <ele>827</ele>
        <time>2020-10-24T15:17:13.000Z</time>
      </trkpt>
      <trkpt lat="48.51127" lon="7.17023">
        <ele>826</ele>
        <time>2020-10-24T15:17:23.000Z</time>
      </trkpt>
      <trkpt lat="48.51114" lon="7.17018">
        <ele>825</ele>
        <time>2020-10-24T15:17:33.000Z</time>
      </trkpt>
      <trkpt lat="48.51103" lon="7.1701">
        <ele>824</ele>
        <time>2020-10-24T15:17:43.000Z</time>
      </trkpt>
      <trkpt lat="48.51092" lon="7.16999">
        <ele>829</ele>
        <time>2020-10-24T15:17:53.000Z</time>
      </trkpt>
      <trkpt lat="48.5108" lon="7.16984">
        <ele>825</ele>
        <time>2020-10-24T15:18:03.000Z</time>
      </trkpt>
      <trkpt lat="48.51071" lon="7.16969">
        <ele>826</ele>
        <time>2020-10-24T15:18:13.000Z</time>
      </trkpt>
      <trkpt lat="48.51061" lon="7.16955">
        <ele>827</ele>
        <time>2020-10-24T15:18:23.000Z</time>
      </trkpt>
      <trkpt lat="48.5105" lon="7.16943">
        <ele>827</ele>
        <time>2020-10-24T15:18:33.000Z</time>
      </trkpt>
      <trkpt lat="48.51038" lon="7.1693">
        <ele>826</ele>
        <time>2020-10-24T15:18:43.000Z</time>
      </trkpt>
      <trkpt lat="48.51027" lon="7.1692">
        <ele>825</ele>
        <time>2020-10-24T15:18:53.000Z</time>
      </trkpt>
      <trkpt lat="48.51021" lon="7.16904">
        <ele>830</ele>
        <time>2020-10-24T15:19:03.000Z</time>
      </trkpt>
      <trkpt lat="48.51012" lon="7.16886">
        <ele>832</ele>
        <time>2020-10-24T15:19:13.000Z</time>
      </trkpt>
      <trkpt lat="48.51001" lon="7.16873">
        <ele>832</ele>
        <time>2020-10-24T15:19:23.000Z</time>
      </trkpt>
      <trkpt lat="48.50992" lon="7.16859">
        <ele>822</ele>
        <time>2020-10-24T15:19:33.000Z</time>
      </trkpt>
      <trkpt lat="48.50981" lon="7.16842">
        <ele>823</ele>
        <time>2020-10-24T15:19:43.000Z</time>
      </trkpt>
      <trkpt lat="48.50972" lon="7.16826">
        <ele>827</ele>
        <time>2020-10-24T15:19:53.000Z</time>
      </trkpt>
      <trkpt lat="48.50962" lon="7.16809">
        <ele>827</ele>
        <time>2020-10-24T15:20:03.000Z</time>
      </trkpt>
      <trkpt lat="48.50952" lon="7.16794">
        <ele>827</ele>
        <time>2020-10-24T15:20:13.000Z</time>
      </trkpt>
      <trkpt lat="48.50941" lon="7.1678">
        <ele>827</ele>
        <time>2020-10-24T15:20:23.000Z</time>
      </trkpt>
      <trkpt lat="48.50932" lon="7.16768">
        <ele>826</ele>
        <time>2020-10-24T15:20:33.000Z</time>
      </trkpt>
      <trkpt lat="48.5092" lon="7.1675">
        <ele>824</ele>
        <time>2020-10-24T15:20:43.000Z</time>
      </trkpt>
      <trkpt lat="48.50912" lon="7.16732">
        <ele>819</ele>
        <time>2020-10-24T15:20:53.000Z</time>
      </trkpt>
      <trkpt lat="48.50907" lon="7.16716">
        <ele>818</ele>
        <time>2020-10-24T15:21:03.000Z</time>
      </trkpt>
      <trkpt lat="48.50902" lon="7.16698">
        <ele>819</ele>
        <time>2020-10-24T15:21:13.000Z</time>
      </trkpt>
      <trkpt lat="48.50899" lon="7.16681">
        <ele>821</ele>
        <time>2020-10-24T15:21:23.000Z</time>
      </trkpt>
      <trkpt lat="48.50897" lon="7.16663">
        <ele>828</ele>
        <time>2020-10-24T15:21:33.000Z</time>
      </trkpt>
      <trkpt lat="48.50893" lon="7.16642">
        <ele>827</ele>
        <time>2020-10-24T15:21:43.000Z</time>
      </trkpt>
      <trkpt lat="48.50888" lon="7.16621">
        <ele>828</ele>
        <time>2020-10-24T15:21:53.000Z</time>
      </trkpt>
      <trkpt lat="48.50879" lon="7.16602">
        <ele>829</ele>
        <time>2020-10-24T15:22:03.000Z</time>
      </trkpt>
      <trkpt lat="48.50868" lon="7.16588">
        <ele>828</ele>
        <time>2020-10-24T15:22:13.000Z</time>
      </trkpt>
      <trkpt lat="48.50856" lon="7.16581">
        <ele>834</ele>
        <time>2020-10-24T15:22:23.000Z</time>
      </trkpt>
      <trkpt lat="48.50843" lon="7.16575">
        <ele>831</ele>
        <time>2020-10-24T15:22:33.000Z</time>
      </trkpt>
      <trkpt lat="48.50833" lon="7.16572">
        <ele>827</ele>
        <time>2020-10-24T15:22:43.000Z</time>
      </trkpt>
      <trkpt lat="48.50821" lon="7.16568">
        <ele>827</ele>
        <time>2020-10-24T15:22:53.000Z</time>
      </trkpt>
      <trkpt lat="48.50805" lon="7.16561">
        <ele>827</ele>
        <time>2020-10-24T15:23:03.000Z</time>
      </trkpt>
      <trkpt lat="48.50793" lon="7.16552">
        <ele>827</ele>
        <time>2020-10-24T15:23:13.000Z</time>
      </trkpt>
      <trkpt lat="48.50781" lon="7.16538">
        <ele>827</ele>
        <time>2020-10-24T15:23:23.000Z</time>
      </trkpt>
      <trkpt lat="48.50769" lon="7.16525">
        <ele>828</ele>
        <time>2020-10-24T15:23:33.000Z</time>
      </trkpt>
      <trkpt lat="48.50758" lon="7.16513">
        <ele>828</ele>
        <time>2020-10-24T15:23:43.000Z</time>
      </trkpt>
      <trkpt lat="48.50749" lon="7.16498">
        <ele>828</ele>
        <time>2020-10-24T15:23:53.000Z</time>
      </trkpt>
      <trkpt lat="48.50741" lon="7.16484">
        <ele>827</ele>
        <time>2020-10-24T15:24:03.000Z</time>
      </trkpt>
      <trkpt lat="48.50737" lon="7.16468">
        <ele>828</ele>
        <time>2020-10-24T15:24:13.000Z</time>
      </trkpt>
      <trkpt lat="48.50733" lon="7.1645">
        <ele>828</ele>
        <time>2020-10-24T15:24:23.000Z</time>
      </trkpt>
      <trkpt lat="48.50729" lon="7.1643">
        <ele>829</ele>
        <time>2020-10-24T15:24:33.000Z</time>
      </trkpt>
      <trkpt lat="48.50723" lon="7.1641">
        <ele>831</ele>
        <time>2020-10-24T15:24:43.000Z</time>
      </trkpt>
      <trkpt lat="48.50718" lon="7.16391">
        <ele>831</ele>
        <time>2020-10-24T15:24:53.000Z</time>
      </trkpt>
      <trkpt lat="48.50711" lon="7.16372">
        <ele>830</ele>
        <time>2020-10-24T15:25:03.000Z</time>
      </trkpt>
      <trkpt lat="48.50704" lon="7.16358">
        <ele>830</ele>
        <time>2020-10-24T15:25:13.000Z</time>
      </trkpt>
      <trkpt lat="48.50698" lon="7.16343">
        <ele>829</ele>
        <time>2020-10-24T15:25:23.000Z</time>
      </trkpt>
      <trkpt lat="48.50693" lon="7.16325">
        <ele>830</ele>
        <time>2020-10-24T15:25:33.000Z</time>
      </trkpt>
      <trkpt lat="48.50691" lon="7.16305">
        <ele>831</ele>
        <time>2020-10-24T15:25:43.000Z</time>
      </trkpt>
      <trkpt lat="48.50687" lon="7.16279">
        <ele>831</ele>
        <time>2020-10-24T15:25:53.000Z</time>
      </trkpt>
      <trkpt lat="48.50689" lon="7.16262">
        <ele>830</ele>
        <time>2020-10-24T15:26:03.000Z</time>
      </trkpt>
      <trkpt lat="48.50684" lon="7.16243">
        <ele>829</ele>
        <time>2020-10-24T15:26:13.000Z</time>
      </trkpt>
      <trkpt lat="48.50681" lon="7.16225">
        <ele>830</ele>
        <time>2020-10-24T15:26:23.000Z</time>
      </trkpt>
      <trkpt lat="48.50675" lon="7.16225">
        <ele>830</ele>
        <time>2020-10-24T15:26:33.000Z</time>
      </trkpt>
      <trkpt lat="48.50669" lon="7.1621">
        <ele>830</ele>
        <time>2020-10-24T15:26:43.000Z</time>
      </trkpt>
      <trkpt lat="48.50664" lon="7.16192">
        <ele>815</ele>
        <time>2020-10-24T15:26:53.000Z</time>
      </trkpt>
      <trkpt lat="48.5066" lon="7.16176">
        <ele>817</ele>
        <time>2020-10-24T15:27:03.000Z</time>
      </trkpt>
      <trkpt lat="48.50659" lon="7.16157">
        <ele>816</ele>
        <time>2020-10-24T15:27:13.000Z</time>
      </trkpt>
      <trkpt lat="48.50658" lon="7.16137">
        <ele>813</ele>
        <time>2020-10-24T15:27:23.000Z</time>
      </trkpt>
      <trkpt lat="48.50657" lon="7.16107">
        <ele>813</ele>
        <time>2020-10-24T15:27:33.000Z</time>
      </trkpt>
      <trkpt lat="48.50655" lon="7.16083">
        <ele>814</ele>
        <time>2020-10-24T15:27:43.000Z</time>
      </trkpt>
      <trkpt lat="48.50656" lon="7.16059">
        <ele>811</ele>
        <time>2020-10-24T15:27:53.000Z</time>
      </trkpt>
      <trkpt lat="48.5066" lon="7.16044">
        <ele>810</ele>
        <time>2020-10-24T15:28:03.000Z</time>
      </trkpt>
      <trkpt lat="48.50663" lon="7.16026">
        <ele>811</ele>
        <time>2020-10-24T15:28:13.000Z</time>
      </trkpt>
      <trkpt lat="48.50666" lon="7.16007">
        <ele>815</ele>
        <time>2020-10-24T15:28:23.000Z</time>
      </trkpt>
      <trkpt lat="48.50666" lon="7.15988">
        <ele>812</ele>
        <time>2020-10-24T15:28:33.000Z</time>
      </trkpt>
      <trkpt lat="48.50668" lon="7.15961">
        <ele>826</ele>
        <time>2020-10-24T15:28:43.000Z</time>
      </trkpt>
      <trkpt lat="48.50669" lon="7.15942">
        <ele>824</ele>
        <time>2020-10-24T15:28:53.000Z</time>
      </trkpt>
      <trkpt lat="48.50672" lon="7.15918">
        <ele>818</ele>
        <time>2020-10-24T15:29:03.000Z</time>
      </trkpt>
      <trkpt lat="48.50673" lon="7.15902">
        <ele>820</ele>
        <time>2020-10-24T15:29:13.000Z</time>
      </trkpt>
      <trkpt lat="48.50671" lon="7.1588">
        <ele>822</ele>
        <time>2020-10-24T15:29:23.000Z</time>
      </trkpt>
      <trkpt lat="48.50677" lon="7.1586">
        <ele>821</ele>
        <time>2020-10-24T15:29:33.000Z</time>
      </trkpt>
      <trkpt lat="48.50682" lon="7.15847">
        <ele>820</ele>
        <time>2020-10-24T15:29:43.000Z</time>
      </trkpt>
      <trkpt lat="48.50678" lon="7.15837">
        <ele>817</ele>
        <time>2020-10-24T15:29:53.000Z</time>
      </trkpt>
      <trkpt lat="48.50678" lon="7.15835">
        <ele>817</ele>
        <time>2020-10-24T15:30:13.000Z</time>
      </trkpt>
      <trkpt lat="48.50677" lon="7.15835">
        <ele>816</ele>
        <time>2020-10-24T15:30:45.000Z</time>
      </trkpt>
      <trkpt lat="48.50674" lon="7.15837">
        <ele>815</ele>
        <time>2020-10-24T15:30:55.000Z</time>
      </trkpt>
      <trkpt lat="48.50674" lon="7.15836">
        <ele>815</ele>
        <time>2020-10-24T15:31:44.000Z</time>
      </trkpt>
      <trkpt lat="48.50672" lon="7.15818">
        <ele>815</ele>
        <time>2020-10-24T15:31:54.000Z</time>
      </trkpt>
      <trkpt lat="48.5067" lon="7.15807">
        <ele>816</ele>
        <time>2020-10-24T15:32:04.000Z</time>
      </trkpt>
      <trkpt lat="48.50666" lon="7.15794">
        <ele>798</ele>
        <time>2020-10-24T15:32:14.000Z</time>
      </trkpt>
      <trkpt lat="48.50665" lon="7.15775">
        <ele>799</ele>
        <time>2020-10-24T15:32:24.000Z</time>
      </trkpt>
      <trkpt lat="48.50664" lon="7.15751">
        <ele>805</ele>
        <time>2020-10-24T15:32:34.000Z</time>
      </trkpt>
      <trkpt lat="48.50664" lon="7.1573">
        <ele>797</ele>
        <time>2020-10-24T15:32:44.000Z</time>
      </trkpt>
      <trkpt lat="48.50658" lon="7.15715">
        <ele>794</ele>
        <time>2020-10-24T15:32:54.000Z</time>
      </trkpt>
      <trkpt lat="48.50654" lon="7.15695">
        <ele>793</ele>
        <time>2020-10-24T15:33:04.000Z</time>
      </trkpt>
      <trkpt lat="48.50655" lon="7.15678">
        <ele>795</ele>
        <time>2020-10-24T15:33:14.000Z</time>
      </trkpt>
      <trkpt lat="48.50653" lon="7.15643">
        <ele>791</ele>
        <time>2020-10-24T15:33:24.000Z</time>
      </trkpt>
      <trkpt lat="48.5065" lon="7.15619">
        <ele>789</ele>
        <time>2020-10-24T15:33:34.000Z</time>
      </trkpt>
      <trkpt lat="48.50649" lon="7.15603">
        <ele>790</ele>
        <time>2020-10-24T15:33:44.000Z</time>
      </trkpt>
      <trkpt lat="48.50651" lon="7.15607">
        <ele>790</ele>
        <time>2020-10-24T15:33:54.000Z</time>
      </trkpt>
      <trkpt lat="48.5065" lon="7.15601">
        <ele>791</ele>
        <time>2020-10-24T15:34:04.000Z</time>
      </trkpt>
      <trkpt lat="48.50647" lon="7.15582">
        <ele>790</ele>
        <time>2020-10-24T15:34:14.000Z</time>
      </trkpt>
      <trkpt lat="48.50646" lon="7.15558">
        <ele>787</ele>
        <time>2020-10-24T15:34:24.000Z</time>
      </trkpt>
      <trkpt lat="48.50645" lon="7.15539">
        <ele>786</ele>
        <time>2020-10-24T15:34:34.000Z</time>
      </trkpt>
      <trkpt lat="48.50639" lon="7.15522">
        <ele>785</ele>
        <time>2020-10-24T15:34:44.000Z</time>
      </trkpt>
      <trkpt lat="48.50634" lon="7.15513">
        <ele>784</ele>
        <time>2020-10-24T15:34:54.000Z</time>
      </trkpt>
      <trkpt lat="48.50628" lon="7.15493">
        <ele>780</ele>
        <time>2020-10-24T15:35:04.000Z</time>
      </trkpt>
      <trkpt lat="48.50627" lon="7.15479">
        <ele>779</ele>
        <time>2020-10-24T15:35:14.000Z</time>
      </trkpt>
      <trkpt lat="48.50626" lon="7.15469">
        <ele>779</ele>
        <time>2020-10-24T15:35:24.000Z</time>
      </trkpt>
      <trkpt lat="48.50625" lon="7.15452">
        <ele>778</ele>
        <time>2020-10-24T15:35:34.000Z</time>
      </trkpt>
      <trkpt lat="48.50625" lon="7.15429">
        <ele>778</ele>
        <time>2020-10-24T15:35:44.000Z</time>
      </trkpt>
      <trkpt lat="48.5062" lon="7.15413">
        <ele>774</ele>
        <time>2020-10-24T15:35:54.000Z</time>
      </trkpt>
      <trkpt lat="48.50615" lon="7.15392">
        <ele>773</ele>
        <time>2020-10-24T15:36:04.000Z</time>
      </trkpt>
      <trkpt lat="48.50611" lon="7.15379">
        <ele>772</ele>
        <time>2020-10-24T15:36:14.000Z</time>
      </trkpt>
      <trkpt lat="48.50608" lon="7.15362">
        <ele>771</ele>
        <time>2020-10-24T15:36:24.000Z</time>
      </trkpt>
      <trkpt lat="48.50599" lon="7.15338">
        <ele>768</ele>
        <time>2020-10-24T15:36:34.000Z</time>
      </trkpt>
      <trkpt lat="48.50594" lon="7.15334">
        <ele>766</ele>
        <time>2020-10-24T15:36:44.000Z</time>
      </trkpt>
      <trkpt lat="48.50577" lon="7.15323">
        <ele>757</ele>
        <time>2020-10-24T15:36:54.000Z</time>
      </trkpt>
      <trkpt lat="48.50576" lon="7.1532">
        <ele>755</ele>
        <time>2020-10-24T15:37:04.000Z</time>
      </trkpt>
      <trkpt lat="48.50581" lon="7.15314">
        <ele>755</ele>
        <time>2020-10-24T15:37:14.000Z</time>
      </trkpt>
      <trkpt lat="48.50584" lon="7.15306">
        <ele>766</ele>
        <time>2020-10-24T15:37:24.000Z</time>
      </trkpt>
      <trkpt lat="48.50587" lon="7.15287">
        <ele>767</ele>
        <time>2020-10-24T15:37:34.000Z</time>
      </trkpt>
      <trkpt lat="48.50583" lon="7.15266">
        <ele>754</ele>
        <time>2020-10-24T15:37:44.000Z</time>
      </trkpt>
      <trkpt lat="48.50575" lon="7.1524">
        <ele>754</ele>
        <time>2020-10-24T15:37:54.000Z</time>
      </trkpt>
      <trkpt lat="48.50574" lon="7.15219">
        <ele>750</ele>
        <time>2020-10-24T15:38:04.000Z</time>
      </trkpt>
      <trkpt lat="48.50576" lon="7.15198">
        <ele>750</ele>
        <time>2020-10-24T15:38:14.000Z</time>
      </trkpt>
      <trkpt lat="48.50575" lon="7.15181">
        <ele>751</ele>
        <time>2020-10-24T15:38:24.000Z</time>
      </trkpt>
      <trkpt lat="48.50573" lon="7.15163">
        <ele>751</ele>
        <time>2020-10-24T15:38:34.000Z</time>
      </trkpt>
      <trkpt lat="48.50573" lon="7.15137">
        <ele>746</ele>
        <time>2020-10-24T15:38:44.000Z</time>
      </trkpt>
      <trkpt lat="48.5057" lon="7.15118">
        <ele>744</ele>
        <time>2020-10-24T15:38:54.000Z</time>
      </trkpt>
      <trkpt lat="48.50562" lon="7.15094">
        <ele>743</ele>
        <time>2020-10-24T15:39:04.000Z</time>
      </trkpt>
      <trkpt lat="48.50563" lon="7.15075">
        <ele>739</ele>
        <time>2020-10-24T15:39:14.000Z</time>
      </trkpt>
      <trkpt lat="48.50566" lon="7.1505">
        <ele>737</ele>
        <time>2020-10-24T15:39:24.000Z</time>
      </trkpt>
      <trkpt lat="48.50564" lon="7.15031">
        <ele>736</ele>
        <time>2020-10-24T15:39:34.000Z</time>
      </trkpt>
      <trkpt lat="48.50569" lon="7.15007">
        <ele>736</ele>
        <time>2020-10-24T15:39:44.000Z</time>
      </trkpt>
      <trkpt lat="48.5058" lon="7.14991">
        <ele>735</ele>
        <time>2020-10-24T15:39:54.000Z</time>
      </trkpt>
      <trkpt lat="48.5059" lon="7.14972">
        <ele>737</ele>
        <time>2020-10-24T15:40:04.000Z</time>
      </trkpt>
      <trkpt lat="48.50601" lon="7.14956">
        <ele>736</ele>
        <time>2020-10-24T15:40:14.000Z</time>
      </trkpt>
      <trkpt lat="48.50611" lon="7.14945">
        <ele>735</ele>
        <time>2020-10-24T15:40:24.000Z</time>
      </trkpt>
      <trkpt lat="48.50623" lon="7.14932">
        <ele>735</ele>
        <time>2020-10-24T15:40:34.000Z</time>
      </trkpt>
      <trkpt lat="48.50637" lon="7.14914">
        <ele>729</ele>
        <time>2020-10-24T15:40:44.000Z</time>
      </trkpt>
      <trkpt lat="48.50644" lon="7.14888">
        <ele>728</ele>
        <time>2020-10-24T15:40:54.000Z</time>
      </trkpt>
      <trkpt lat="48.50641" lon="7.14872">
        <ele>726</ele>
        <time>2020-10-24T15:41:04.000Z</time>
      </trkpt>
      <trkpt lat="48.50637" lon="7.14857">
        <ele>726</ele>
        <time>2020-10-24T15:41:14.000Z</time>
      </trkpt>
      <trkpt lat="48.50638" lon="7.14842">
        <ele>725</ele>
        <time>2020-10-24T15:41:24.000Z</time>
      </trkpt>
      <trkpt lat="48.50641" lon="7.14826">
        <ele>720</ele>
        <time>2020-10-24T15:41:34.000Z</time>
      </trkpt>
      <trkpt lat="48.50646" lon="7.14809">
        <ele>719</ele>
        <time>2020-10-24T15:41:44.000Z</time>
      </trkpt>
      <trkpt lat="48.50653" lon="7.14791">
        <ele>719</ele>
        <time>2020-10-24T15:41:54.000Z</time>
      </trkpt>
      <trkpt lat="48.50655" lon="7.14773">
        <ele>719</ele>
        <time>2020-10-24T15:42:04.000Z</time>
      </trkpt>
      <trkpt lat="48.50653" lon="7.14754">
        <ele>719</ele>
        <time>2020-10-24T15:42:14.000Z</time>
      </trkpt>
      <trkpt lat="48.50662" lon="7.14745">
        <ele>719</ele>
        <time>2020-10-24T15:42:24.000Z</time>
      </trkpt>
      <trkpt lat="48.50674" lon="7.14736">
        <ele>723</ele>
        <time>2020-10-24T15:42:34.000Z</time>
      </trkpt>
      <trkpt lat="48.50687" lon="7.14726">
        <ele>724</ele>
        <time>2020-10-24T15:42:44.000Z</time>
      </trkpt>
      <trkpt lat="48.50699" lon="7.14716">
        <ele>725</ele>
        <time>2020-10-24T15:42:54.000Z</time>
      </trkpt>
      <trkpt lat="48.50711" lon="7.14706">
        <ele>725</ele>
        <time>2020-10-24T15:43:04.000Z</time>
      </trkpt>
      <trkpt lat="48.50723" lon="7.14696">
        <ele>726</ele>
        <time>2020-10-24T15:43:14.000Z</time>
      </trkpt>
      <trkpt lat="48.50731" lon="7.14682">
        <ele>727</ele>
        <time>2020-10-24T15:43:24.000Z</time>
      </trkpt>
      <trkpt lat="48.50736" lon="7.14664">
        <ele>729</ele>
        <time>2020-10-24T15:43:34.000Z</time>
      </trkpt>
      <trkpt lat="48.50738" lon="7.14646">
        <ele>729</ele>
        <time>2020-10-24T15:43:44.000Z</time>
      </trkpt>
      <trkpt lat="48.50743" lon="7.14628">
        <ele>729</ele>
        <time>2020-10-24T15:43:54.000Z</time>
      </trkpt>
      <trkpt lat="48.50746" lon="7.14626">
        <ele>729</ele>
        <time>2020-10-24T15:44:04.000Z</time>
      </trkpt>
      <trkpt lat="48.50747" lon="7.14625">
        <ele>729</ele>
        <time>2020-10-24T15:44:14.000Z</time>
      </trkpt>
      <trkpt lat="48.50753" lon="7.14613">
        <ele>735</ele>
        <time>2020-10-24T15:44:24.000Z</time>
      </trkpt>
      <trkpt lat="48.50764" lon="7.14604">
        <ele>736</ele>
        <time>2020-10-24T15:44:34.000Z</time>
      </trkpt>
      <trkpt lat="48.50775" lon="7.14606">
        <ele>736</ele>
        <time>2020-10-24T15:44:44.000Z</time>
      </trkpt>
      <trkpt lat="48.50787" lon="7.14619">
        <ele>736</ele>
        <time>2020-10-24T15:44:54.000Z</time>
      </trkpt>
      <trkpt lat="48.50788" lon="7.14634">
        <ele>735</ele>
        <time>2020-10-24T15:45:04.000Z</time>
      </trkpt>
      <trkpt lat="48.50783" lon="7.14642">
        <ele>735</ele>
        <time>2020-10-24T15:45:14.000Z</time>
      </trkpt>
      <trkpt lat="48.5078" lon="7.14645">
        <ele>735</ele>
        <time>2020-10-24T15:45:24.000Z</time>
      </trkpt>
      <trkpt lat="48.50781" lon="7.14643">
        <ele>735</ele>
        <time>2020-10-24T15:45:34.000Z</time>
      </trkpt>
      <trkpt lat="48.5078" lon="7.14641">
        <ele>735</ele>
        <time>2020-10-24T15:45:44.000Z</time>
      </trkpt>
    </trkseg>
  </trk>
</gpx>